Observation data for Snyder SSW on 04/25/2019      Previous  Date  Next       Current Mesonet Observations  Soil Data  Daily Summary Page  Observations in Plain Language
KWT1 250500Z 23008KT 12/11 A2991 RMK A01 T01170110  RH  096%=      5-min Rain = 0
KWT1 250501Z 23008KT 12/11 A2991 RMK A01 T01180111  RH  096%=      5-min Rain = 0
KWT1 250502Z 23008KT 12/11 A2991 RMK A01 T01180111  RH  095%=      5-min Rain = 0
KWT1 250503Z 23008KT 12/11 A2991 RMK A01 T01180111  RH  095%=      5-min Rain = 0
KWT1 250504Z 23007KT 12/11 A2991 RMK A01 T01190111  RH  095%=      5-min Rain = 0
KWT1 250505Z 23008KT 12/11 A2991 RMK A01 T01180111  RH  095%=      5-min Rain = 0
KWT1 250506Z 23008KT 12/11 A2991 RMK A01 T01190111  RH  095%=      5-min Rain = 0
KWT1 250507Z 23008KT 12/11 A2991 RMK A01 T01190111  RH  095%=      5-min Rain = 0
KWT1 250508Z 23008KT 12/11 A2991 RMK A01 T01190112  RH  095%=      5-min Rain = 0
KWT1 250509Z 23008KT 12/11 A2991 RMK A01 T01190112  RH  095%=      5-min Rain = 0
KWT1 250510Z 23008KT 12/11 A2991 RMK A01 T01190111  RH  095%=      5-min Rain = 0
KWT1 250511Z 23008KT 12/11 A2991 RMK A01 T01190111  RH  095%=      5-min Rain = 0
KWT1 250512Z 23008KT 12/11 A2991 RMK A01 T01190111  RH  095%=      5-min Rain = 0
KWT1 250513Z 23007KT 12/11 A2991 RMK A01 T01190111  RH  095%=      5-min Rain = 0
KWT1 250514Z 23007KT 12/11 A2991 RMK A01 T01190111  RH  095%=      5-min Rain = 0
KWT1 250515Z 23007KT 12/11 A2991 RMK A01 T01190111  RH  095%=      5-min Rain = 0
KWT1 250516Z 23007KT 12/11 A2991 RMK A01 T01190111  RH  095%=      5-min Rain = 0
KWT1 250517Z 23007KT 12/11 A2991 RMK A01 T01180111  RH  095%=      5-min Rain = 0
KWT1 250518Z 23007KT 12/11 A2991 RMK A01 T01180110  RH  095%=      5-min Rain = 0
KWT1 250519Z 23007KT 12/11 A2991 RMK A01 T01180110  RH  095%=      5-min Rain = 0
KWT1 250520Z 23007KT 12/11 A2991 RMK A01 T01180110  RH  095%=      5-min Rain = 0
KWT1 250521Z 23007KT 12/11 A2991 RMK A01 T01180110  RH  095%=      5-min Rain = 0
KWT1 250522Z 23007KT 12/11 A2991 RMK A01 T01170110  RH  095%=      5-min Rain = 0
KWT1 250523Z 23007KT 12/11 A2991 RMK A01 T01170110  RH  095%=      5-min Rain = 0
KWT1 250524Z 23007KT 12/11 A2991 RMK A01 T01170110  RH  095%=      5-min Rain = 0
KWT1 250525Z 23007KT 12/11 A2991 RMK A01 T01170110  RH  095%=      5-min Rain = 0
KWT1 250526Z 23007KT 12/11 A2991 RMK A01 T01170110  RH  096%=      5-min Rain = 0
KWT1 250527Z 23007KT 12/11 A2991 RMK A01 T01170110  RH  096%=      5-min Rain = 0
KWT1 250528Z 23007KT 12/11 A2991 RMK A01 T01170110  RH  096%=      5-min Rain = 0
KWT1 250529Z 23007KT 12/11 A2991 RMK A01 T01170110  RH  096%=      5-min Rain = 0
KWT1 250530Z 23007KT 12/11 A2991 RMK A01 T01160110  RH  096%=      5-min Rain = 0
KWT1 250531Z 23006KT 12/11 A2991 RMK A01 T01160110  RH  096%=      5-min Rain = 0
KWT1 250532Z 23006KT 12/11 A2991 RMK A01 T01160110  RH  096%=      5-min Rain = 0
KWT1 250533Z 23006KT 12/11 A2991 RMK A01 T01160110  RH  096%=      5-min Rain = 0
KWT1 250534Z 22006KT 12/11 A2991 RMK A01 T01160110  RH  096%=      5-min Rain = 0
KWT1 250535Z 23007KT 12/11 A2991 RMK A01 T01160110  RH  096%=      5-min Rain = 0
KWT1 250536Z 23006KT 12/11 A2991 RMK A01 T01160110  RH  096%=      5-min Rain = 0
KWT1 250537Z 23006KT 12/11 A2991 RMK A01 T01160110  RH  096%=      5-min Rain = 0
KWT1 250538Z 22007KT 12/11 A2991 RMK A01 T01160110  RH  096%=      5-min Rain = 0
KWT1 250539Z 22007KT 12/11 A2991 RMK A01 T01160110  RH  096%=      5-min Rain = 0
KWT1 250540Z 23007KT 12/11 A2991 RMK A01 T01160110  RH  096%=      5-min Rain = 0
KWT1 250541Z 23007KT 12/11 A2991 RMK A01 T01150110  RH  096%=      5-min Rain = 0
KWT1 250542Z 23007KT 12/11 A2991 RMK A01 T01150110  RH  096%=      5-min Rain = 0
KWT1 250543Z 23006KT 12/11 A2991 RMK A01 T01150110  RH  096%=      5-min Rain = 0
KWT1 250544Z 23006KT 12/11 A2991 RMK A01 T01150110  RH  096%=      5-min Rain = 0
KWT1 250545Z 23007KT 12/11 A2991 RMK A01 T01150110  RH  097%=      5-min Rain = 0
KWT1 250546Z 23007KT 12/11 A2991 RMK A01 T01150110  RH  097%=      5-min Rain = 0
KWT1 250547Z 23006KT 12/11 A2991 RMK A01 T01150110  RH  097%=      5-min Rain = 0
KWT1 250548Z 23006KT 12/11 A2991 RMK A01 T01150110  RH  097%=      5-min Rain = 0
KWT1 250549Z 23006KT 12/11 A2991 RMK A01 T01150110  RH  097%=      5-min Rain = 0
KWT1 250550Z 23006KT 12/11 A2991 RMK A01 T01150110  RH  097%=      5-min Rain = 0
KWT1 250551Z 23006KT 12/11 A2991 RMK A01 T01150110  RH  097%=      5-min Rain = 0
KWT1 250552Z 23006KT 12/11 A2991 RMK A01 T01150110  RH  097%=      5-min Rain = 0
KWT1 250553Z 23006KT 11/11 A2991 RMK A01 T01140109  RH  097%=      5-min Rain = 0
KWT1 250554Z 23006KT 11/11 A2991 RMK A01 T01140109  RH  097%=      5-min Rain = 0
KWT1 250555Z 23005KT 11/11 A2991 RMK A01 T01140109  RH  097%=      5-min Rain = 0
KWT1 250556Z 23006KT 11/11 A2991 RMK A01 T01130109  RH  097%=      5-min Rain = 0
KWT1 250557Z 24005KT 11/11 A2991 RMK A01 T01130108  RH  097%=      5-min Rain = 0
KWT1 250558Z 24005KT 11/11 A2991 RMK A01 T01130108  RH  097%=      5-min Rain = 0
KWT1 250559Z 24005KT 11/11 A2991 RMK A01 T01130108  RH  097%=      5-min Rain = 0
KWT1 250600Z 24004KT 11/11 A2991 RMK A01 T01130108  RH  097%=      5-min Rain = 0
KWT1 250601Z 24004KT 11/11 A2991 RMK A01 T01120108  RH  097%=      5-min Rain = 0
KWT1 250602Z 24004KT 11/11 A2991 RMK A01 T01120107  RH  097%=      5-min Rain = 0
KWT1 250603Z 24004KT 11/11 A2991 RMK A01 T01120108  RH  097%=      5-min Rain = 0
KWT1 250604Z 24005KT 11/11 A2991 RMK A01 T01120108  RH  097%=      5-min Rain = 0
KWT1 250605Z 24004KT 11/11 A2991 RMK A01 T01120107  RH  097%=      5-min Rain = 0
KWT1 250606Z 25004KT 11/11 A2991 RMK A01 T01110107  RH  097%=      5-min Rain = 0
KWT1 250607Z 24004KT 11/11 A2991 RMK A01 T01110107  RH  097%=      5-min Rain = 0
KWT1 250608Z 25004KT 11/11 A2991 RMK A01 T01110107  RH  097%=      5-min Rain = 0
KWT1 250609Z 25004KT 11/11 A2991 RMK A01 T01110107  RH  097%=      5-min Rain = 0
KWT1 250610Z 25004KT 11/11 A2991 RMK A01 T01110107  RH  098%=      5-min Rain = 0
KWT1 250611Z 25004KT 11/11 A2991 RMK A01 T01100107  RH  098%=      5-min Rain = 0
KWT1 250612Z 25004KT 11/11 A2991 RMK A01 T01100107  RH  098%=      5-min Rain = 0
KWT1 250613Z 25004KT 11/11 A2991 RMK A01 T01110107  RH  098%=      5-min Rain = 0
KWT1 250614Z 26004KT 11/11 A2991 RMK A01 T01110107  RH  098%=      5-min Rain = 0
KWT1 250615Z 26004KT 11/11 A2991 RMK A01 T01110107  RH  098%=      5-min Rain = 0
KWT1 250616Z 26004KT 11/11 A2991 RMK A01 T01110108  RH  098%=      5-min Rain = 0
KWT1 250617Z 26004KT 11/11 A2991 RMK A01 T01110107  RH  098%=      5-min Rain = 0
KWT1 250618Z 26004KT 11/11 A2991 RMK A01 T01110107  RH  098%=      5-min Rain = 0
KWT1 250619Z 26004KT 11/11 A2991 RMK A01 T01110107  RH  098%=      5-min Rain = 0
KWT1 250620Z 25004KT 11/11 A2991 RMK A01 T01110108  RH  098%=      5-min Rain = 0
KWT1 250621Z 25004KT 11/11 A299 RMK A01 T01110108  RH  098%=      5-min Rain = 0
KWT1 250622Z 25004KT 11/11 A299 RMK A01 T01110108  RH  098%=      5-min Rain = 0
KWT1 250623Z 25005KT 11/11 A299 RMK A01 T01120109  RH  098%=      5-min Rain = 0
KWT1 250624Z 25005KT 11/11 A299 RMK A01 T01130109  RH  098%=      5-min Rain = 0
KWT1 250625Z 26005KT 11/11 A299 RMK A01 T01130109  RH  098%=      5-min Rain = 0
KWT1 250626Z 26005KT 11/11 A299 RMK A01 T01130109  RH  097%=      5-min Rain = 0
KWT1 250627Z 25006KT 11/11 A299 RMK A01 T01130109  RH  097%=      5-min Rain = 0
KWT1 250628Z 26005KT 11/11 A299 RMK A01 T01130109  RH  097%=      5-min Rain = 0
KWT1 250629Z 26006KT 11/11 A299 RMK A01 T01140109  RH  097%=      5-min Rain = 0
KWT1 250630Z 25006KT 11/11 A299 RMK A01 T01140109  RH  097%=      5-min Rain = 0
KWT1 250631Z 25006KT 11/11 A299 RMK A01 T01140109  RH  097%=      5-min Rain = 0
KWT1 250632Z 25006KT 11/11 A299 RMK A01 T01140109  RH  097%=      5-min Rain = 0
KWT1 250633Z 25006KT 11/11 A299 RMK A01 T01140109  RH  097%=      5-min Rain = 0
KWT1 250634Z 25006KT 11/11 A299 RMK A01 T01140109  RH  096%=      5-min Rain = 0
KWT1 250635Z 25005KT 11/11 A299 RMK A01 T01140109  RH  096%=      5-min Rain = 0
KWT1 250636Z 25006KT 11/11 A299 RMK A01 T01140108  RH  096%=      5-min Rain = 0
KWT1 250637Z 25006KT 11/11 A299 RMK A01 T01140108  RH  096%=      5-min Rain = 0
KWT1 250638Z 25006KT 11/11 A299 RMK A01 T01140108  RH  096%=      5-min Rain = 0
KWT1 250639Z 25006KT 11/11 A299 RMK A01 T01140108  RH  096%=      5-min Rain = 0
KWT1 250640Z 25006KT 11/11 A299 RMK A01 T01140108  RH  096%=      5-min Rain = 0
KWT1 250641Z 26006KT 11/11 A299 RMK A01 T01140108  RH  096%=      5-min Rain = 0
KWT1 250642Z 26006KT 11/11 A299 RMK A01 T01140108  RH  096%=      5-min Rain = 0
KWT1 250643Z 26006KT 11/11 A299 RMK A01 T01140108  RH  096%=      5-min Rain = 0
KWT1 250644Z 26006KT 11/11 A299 RMK A01 T01140108  RH  096%=      5-min Rain = 0
KWT1 250645Z 26006KT 11/11 A299 RMK A01 T01140108  RH  096%=      5-min Rain = 0
KWT1 250646Z 25006KT 11/11 A299 RMK A01 T01140108  RH  096%=      5-min Rain = 0
KWT1 250647Z 25006KT 11/11 A299 RMK A01 T01140108  RH  096%=      5-min Rain = 0
KWT1 250648Z 25006KT 11/11 A299 RMK A01 T01140108  RH  096%=      5-min Rain = 0
KWT1 250649Z 25007KT 11/11 A299 RMK A01 T01140108  RH  096%=      5-min Rain = 0
KWT1 250650Z 26006KT 11/11 A299 RMK A01 T01140109  RH  096%=      5-min Rain = 0
KWT1 250651Z 26006KT 12/11 A299 RMK A01 T01150109  RH  096%=      5-min Rain = 0
KWT1 250652Z 26007KT 12/11 A299 RMK A01 T01150108  RH  096%=      5-min Rain = 0
KWT1 250653Z 26006KT 12/11 A299 RMK A01 T01150108  RH  096%=      5-min Rain = 0
KWT1 250654Z 26006KT 12/11 A299 RMK A01 T01150108  RH  096%=      5-min Rain = 0
KWT1 250655Z 26007KT 12/11 A299 RMK A01 T01150108  RH  096%=      5-min Rain = 0
KWT1 250656Z 26007KT 12/11 A299 RMK A01 T01150108  RH  096%=      5-min Rain = 0
KWT1 250657Z 26007KT 12/11 A2989 RMK A01 T01150108  RH  095%=      5-min Rain = 0
KWT1 250658Z 26007KT 12/11 A2989 RMK A01 T01150108  RH  095%=      5-min Rain = 0
KWT1 250659Z 26008KT 12/11 A2989 RMK A01 T01150108  RH  095%=      5-min Rain = 0
KWT1 250700Z 26007KT 12/11 A2989 RMK A01 T01150108  RH  095%=      5-min Rain = 0
KWT1 250701Z 26007KT 12/11 A2989 RMK A01 T01150108  RH  096%=      5-min Rain = 0
KWT1 250702Z 26007KT 12/11 A2989 RMK A01 T01150108  RH  096%=      5-min Rain = 0
KWT1 250703Z 26007KT 12/11 A2989 RMK A01 T01150108  RH  095%=      5-min Rain = 0
KWT1 250704Z 26007KT 12/11 A2989 RMK A01 T01150108  RH  095%=      5-min Rain = 0
KWT1 250705Z 25007KT 11/11 A2989 RMK A01 T01140107  RH  095%=      5-min Rain = 0
KWT1 250706Z 26007KT 12/11 A2989 RMK A01 T01150108  RH  095%=      5-min Rain = 0
KWT1 250707Z 26007KT 12/11 A2989 RMK A01 T01150108  RH  095%=      5-min Rain = 0
KWT1 250708Z 26007KT 12/11 A2989 RMK A01 T01150108  RH  095%=      5-min Rain = 0
KWT1 250709Z 26007KT 11/11 A2989 RMK A01 T01140107  RH  095%=      5-min Rain = 0
KWT1 250710Z 26007KT 11/11 A2989 RMK A01 T01140107  RH  095%=      5-min Rain = 0
KWT1 250711Z 26007KT 11/11 A2989 RMK A01 T01140107  RH  095%=      5-min Rain = 0
KWT1 250712Z 26007KT 11/11 A2989 RMK A01 T01140107  RH  095%=      5-min Rain = 0
KWT1 250713Z 25007KT 11/11 A2989 RMK A01 T01140107  RH  095%=      5-min Rain = 0
KWT1 250714Z 25006KT 11/11 A2989 RMK A01 T01140107  RH  095%=      5-min Rain = 0
KWT1 250715Z 25007KT 11/11 A2989 RMK A01 T01140107  RH  095%=      5-min Rain = 0
KWT1 250716Z 26007KT 11/11 A2989 RMK A01 T01140106  RH  095%=      5-min Rain = 0
KWT1 250717Z 25007KT 11/11 A2989 RMK A01 T01140106  RH  095%=      5-min Rain = 0
KWT1 250718Z 25006KT 11/11 A2989 RMK A01 T01140107  RH  095%=      5-min Rain = 0
KWT1 250719Z 25007KT 11/11 A2989 RMK A01 T01130106  RH  095%=      5-min Rain = 0
KWT1 250720Z 25007KT 11/11 A2989 RMK A01 T01130106  RH  095%=      5-min Rain = 0
KWT1 250721Z 25007KT 11/11 A2989 RMK A01 T01130106  RH  096%=      5-min Rain = 0
KWT1 250722Z 26007KT 11/11 A2989 RMK A01 T01120105  RH  095%=      5-min Rain = 0
KWT1 250723Z 26007KT 11/11 A2989 RMK A01 T01130106  RH  096%=      5-min Rain = 0
KWT1 250724Z 26007KT 11/11 A2989 RMK A01 T01120106  RH  096%=      5-min Rain = 0
KWT1 250725Z 26007KT 11/11 A2988 RMK A01 T01130106  RH  096%=      5-min Rain = 0
KWT1 250726Z 26007KT 11/11 A2988 RMK A01 T01120106  RH  096%=      5-min Rain = 0
KWT1 250727Z 26007KT 11/11 A2988 RMK A01 T01120106  RH  096%=      5-min Rain = 0
KWT1 250728Z 26007KT 11/11 A2988 RMK A01 T01130106  RH  096%=      5-min Rain = 0
KWT1 250729Z 25007KT 11/11 A2988 RMK A01 T01120106  RH  096%=      5-min Rain = 0
KWT1 250730Z 26008KT 11/11 A2988 RMK A01 T01120106  RH  096%=      5-min Rain = 0
KWT1 250731Z 26008KT 11/11 A2988 RMK A01 T01130107  RH  096%=      5-min Rain = 0
KWT1 250732Z 25008KT 11/11 A2988 RMK A01 T01130107  RH  096%=      5-min Rain = 0
KWT1 250733Z 25008KT 11/11 A2988 RMK A01 T01130107  RH  096%=      5-min Rain = 0
KWT1 250734Z 25008KT 11/11 A2988 RMK A01 T01130107  RH  096%=      5-min Rain = 0
KWT1 250735Z 25008KT 11/11 A2988 RMK A01 T01140106  RH  095%=      5-min Rain = 0
KWT1 250736Z 25007KT 11/11 A2988 RMK A01 T01140107  RH  095%=      5-min Rain = 0
KWT1 250737Z 26008KT 11/11 A2988 RMK A01 T01140106  RH  095%=      5-min Rain = 0
KWT1 250738Z 25007KT 11/11 A2988 RMK A01 T01140106  RH  095%=      5-min Rain = 0
KWT1 250739Z 26008KT 11/11 A2988 RMK A01 T01140106  RH  095%=      5-min Rain = 0
KWT1 250740Z 26007KT 11/11 A2988 RMK A01 T01130106  RH  095%=      5-min Rain = 0
KWT1 250741Z 26007KT 11/11 A2988 RMK A01 T01130106  RH  095%=      5-min Rain = 0
KWT1 250742Z 25008KT 11/11 A2988 RMK A01 T01130106  RH  095%=      5-min Rain = 0
KWT1 250743Z 26007KT 11/11 A2988 RMK A01 T01140106  RH  095%=      5-min Rain = 0
KWT1 250744Z 26006KT 11/11 A2988 RMK A01 T01140106  RH  095%=      5-min Rain = 0
KWT1 250745Z 25007KT 11/11 A2988 RMK A01 T01140106  RH  095%=      5-min Rain = 0
KWT1 250746Z 26007KT 11/11 A2988 RMK A01 T01130106  RH  095%=      5-min Rain = 0
KWT1 250747Z 26008KT 11/11 A2988 RMK A01 T01130106  RH  095%=      5-min Rain = 0
KWT1 250748Z 26008KT 11/11 A2988 RMK A01 T01130106  RH  095%=      5-min Rain = 0
KWT1 250749Z 26007KT 11/11 A2988 RMK A01 T01130106  RH  095%=      5-min Rain = 0
KWT1 250750Z 26007KT 11/11 A2988 RMK A01 T01130106  RH  095%=      5-min Rain = 0
KWT1 250751Z 26007KT 11/11 A2988 RMK A01 T01130106  RH  095%=      5-min Rain = 0
KWT1 250752Z 26007KT 11/11 A2988 RMK A01 T01130107  RH  096%=      5-min Rain = 0
KWT1 250753Z 25007KT 11/11 A2988 RMK A01 T01130106  RH  096%=      5-min Rain = 0
KWT1 250754Z 25008KT 11/11 A2988 RMK A01 T01130106  RH  096%=      5-min Rain = 0
KWT1 250755Z 26007KT 11/11 A2988 RMK A01 T01140107  RH  096%=      5-min Rain = 0
KWT1 250756Z 25007KT 11/11 A2988 RMK A01 T01140107  RH  096%=      5-min Rain = 0
KWT1 250757Z 26008KT 11/11 A2988 RMK A01 T01140107  RH  096%=      5-min Rain = 0
KWT1 250758Z 26007KT 11/11 A2988 RMK A01 T01140107  RH  096%=      5-min Rain = 0
KWT1 250759Z 25007KT 11/11 A2988 RMK A01 T01140107  RH  096%=      5-min Rain = 0
KWT1 250800Z 25008KT 11/11 A2988 RMK A01 T01140107  RH  096%=      5-min Rain = 0
KWT1 250801Z 25008KT 11/11 A2988 RMK A01 T01140108  RH  096%=      5-min Rain = 0
KWT1 250802Z 25008KT 11/11 A2988 RMK A01 T01140108  RH  096%=      5-min Rain = 0
KWT1 250803Z 25008KT 12/11 A2988 RMK A01 T01150108  RH  096%=      5-min Rain = 0
KWT1 250804Z 25008KT 11/11 A2987 RMK A01 T01140108  RH  096%=      5-min Rain = 0
KWT1 250805Z 25007KT 12/11 A2987 RMK A01 T01150108  RH  096%=      5-min Rain = 0
KWT1 250806Z 25008KT 12/11 A2987 RMK A01 T01150108  RH  095%=      5-min Rain = 0
KWT1 250807Z 25008KT 12/11 A2987 RMK A01 T01150108  RH  096%=      5-min Rain = 0
KWT1 250808Z 25007KT 12/11 A2987 RMK A01 T01150108  RH  095%=      5-min Rain = 0
KWT1 250809Z 25008KT 12/11 A2987 RMK A01 T01150108  RH  095%=      5-min Rain = 0
KWT1 250810Z 25008KT 12/11 A2987 RMK A01 T01160108  RH  095%=      5-min Rain = 0
KWT1 250811Z 25008KT 12/11 A2987 RMK A01 T01160108  RH  095%=      5-min Rain = 0
KWT1 250812Z 25008KT 12/11 A2987 RMK A01 T01160108  RH  095%=      5-min Rain = 0
KWT1 250813Z 25007KT 12/11 A2987 RMK A01 T01150108  RH  095%=      5-min Rain = 0
KWT1 250814Z 25007KT 12/11 A2987 RMK A01 T01160108  RH  095%=      5-min Rain = 0
KWT1 250815Z 25008KT 12/11 A2987 RMK A01 T01150107  RH  095%=      5-min Rain = 0
KWT1 250816Z 25007KT 12/11 A2987 RMK A01 T01150107  RH  095%=      5-min Rain = 0
KWT1 250817Z 25007KT 12/11 A2987 RMK A01 T01150107  RH  095%=      5-min Rain = 0
KWT1 250818Z 25007KT 11/11 A2987 RMK A01 T01140107  RH  095%=      5-min Rain = 0
KWT1 250819Z 25008KT 11/11 A2987 RMK A01 T01140107  RH  095%=      5-min Rain = 0
KWT1 250820Z 25007KT 11/11 A2987 RMK A01 T01140107  RH  095%=      5-min Rain = 0
KWT1 250821Z 26006KT 11/11 A2987 RMK A01 T01140106  RH  095%=      5-min Rain = 0
KWT1 250822Z 26007KT 11/11 A2987 RMK A01 T01140107  RH  095%=      5-min Rain = 0
KWT1 250823Z 26007KT 11/11 A2988 RMK A01 T01140107  RH  095%=      5-min Rain = 0
KWT1 250824Z 26006KT 11/11 A2987 RMK A01 T01140107  RH  096%=      5-min Rain = 0
KWT1 250825Z 26006KT 11/11 A2987 RMK A01 T01140107  RH  096%=      5-min Rain = 0
KWT1 250826Z 25006KT 11/11 A2987 RMK A01 T01130106  RH  096%=      5-min Rain = 0
KWT1 250827Z 25007KT 11/11 A2987 RMK A01 T01130106  RH  096%=      5-min Rain = 0
KWT1 250828Z 25006KT 11/11 A2987 RMK A01 T01130106  RH  096%=      5-min Rain = 0
KWT1 250829Z 25006KT 11/11 A2987 RMK A01 T01130107  RH  096%=      5-min Rain = 0
KWT1 250830Z 25006KT 11/11 A2987 RMK A01 T01130107  RH  096%=      5-min Rain = 0
KWT1 250831Z 25006KT 11/11 A2987 RMK A01 T01130107  RH  096%=      5-min Rain = 0
KWT1 250832Z 25006KT 11/11 A2987 RMK A01 T01130107  RH  096%=      5-min Rain = 0
KWT1 250833Z 25007KT 11/11 A2987 RMK A01 T01130107  RH  096%=      5-min Rain = 0
KWT1 250834Z 25006KT 11/11 A2987 RMK A01 T01130107  RH  096%=      5-min Rain = 0
KWT1 250835Z 26006KT 11/11 A2987 RMK A01 T01130107  RH  096%=      5-min Rain = 0
KWT1 250836Z 25006KT 11/11 A2987 RMK A01 T01130107  RH  096%=      5-min Rain = 0
KWT1 250837Z 25006KT 11/11 A2987 RMK A01 T01130107  RH  096%=      5-min Rain = 0
KWT1 250838Z 25006KT 11/11 A2987 RMK A01 T01130107  RH  096%=      5-min Rain = 0
KWT1 250839Z 25006KT 11/11 A2987 RMK A01 T01130108  RH  096%=      5-min Rain = 0
KWT1 250840Z 25005KT 11/11 A2987 RMK A01 T01130107  RH  096%=      5-min Rain = 0
KWT1 250841Z 25005KT 11/11 A2987 RMK A01 T01130108  RH  096%=      5-min Rain = 0
KWT1 250842Z 25006KT 11/11 A2987 RMK A01 T01130107  RH  096%=      5-min Rain = 0
KWT1 250843Z 25005KT 11/11 A2987 RMK A01 T01130107  RH  096%=      5-min Rain = 0
KWT1 250844Z 25005KT 11/11 A2987 RMK A01 T01120107  RH  096%=      5-min Rain = 0
KWT1 250845Z 25005KT 11/11 A2987 RMK A01 T01130107  RH  097%=      5-min Rain = 0
KWT1 250846Z 26005KT 11/11 A2987 RMK A01 T01120107  RH  097%=      5-min Rain = 0
KWT1 250847Z 25005KT 11/11 A2987 RMK A01 T01120107  RH  097%=      5-min Rain = 0
KWT1 250848Z 25005KT 11/11 A2987 RMK A01 T01120107  RH  097%=      5-min Rain = 0
KWT1 250849Z 26005KT 11/11 A2987 RMK A01 T01120107  RH  097%=      5-min Rain = 0
KWT1 250850Z 25006KT 11/11 A2987 RMK A01 T01120107  RH  097%=      5-min Rain = 0
KWT1 250851Z 26005KT 11/11 A2987 RMK A01 T01120107  RH  097%=      5-min Rain = 0
KWT1 250852Z 26006KT 11/11 A2987 RMK A01 T01120107  RH  097%=      5-min Rain = 0
KWT1 250853Z 25006KT 11/11 A2987 RMK A01 T01120107  RH  097%=      5-min Rain = 0
KWT1 250854Z 26006KT 11/11 A2987 RMK A01 T01120107  RH  097%=      5-min Rain = 0
KWT1 250855Z 26006KT 11/11 A2987 RMK A01 T01120107  RH  097%=      5-min Rain = 0
KWT1 250856Z 26006KT 11/11 A2987 RMK A01 T01110107  RH  097%=      5-min Rain = 0
KWT1 250857Z 26006KT 11/11 A2987 RMK A01 T01120107  RH  097%=      5-min Rain = 0
KWT1 250858Z 26007KT 11/11 A2987 RMK A01 T01120107  RH  097%=      5-min Rain = 0
KWT1 250859Z 26007KT 11/11 A2987 RMK A01 T01110107  RH  097%=      5-min Rain = 0
KWT1 250900Z 26007KT 11/11 A2987 RMK A01 T01120107  RH  097%=      5-min Rain = 0
KWT1 250901Z 26007KT 11/11 A2987 RMK A01 T01110107  RH  097%=      5-min Rain = 0
KWT1 250902Z 26007KT 11/11 A2987 RMK A01 T01120107  RH  097%=      5-min Rain = 0
KWT1 250903Z 25007KT 11/11 A2987 RMK A01 T01120108  RH  097%=      5-min Rain = 0
KWT1 250904Z 26008KT 11/11 A2987 RMK A01 T01120108  RH  097%=      5-min Rain = 0
KWT1 250905Z 25007KT 11/11 A2987 RMK A01 T01130109  RH  097%=      5-min Rain = 0
KWT1 250906Z 25006KT 11/11 A2987 RMK A01 T01130108  RH  097%=      5-min Rain = 0
KWT1 250907Z 26007KT 11/11 A2987 RMK A01 T01130108  RH  097%=      5-min Rain = 0
KWT1 250908Z 26007KT 11/11 A2987 RMK A01 T01130108  RH  097%=      5-min Rain = 0
KWT1 250909Z 26007KT 11/11 A2987 RMK A01 T01130107  RH  097%=      5-min Rain = 0
KWT1 250910Z 26007KT 11/11 A2987 RMK A01 T01130108  RH  097%=      5-min Rain = 0
KWT1 250911Z 26006KT 11/11 A2987 RMK A01 T01120107  RH  097%=      5-min Rain = 0
KWT1 250912Z 26007KT 11/11 A2987 RMK A01 T01110106  RH  097%=      5-min Rain = 0
KWT1 250913Z 26007KT 11/11 A2987 RMK A01 T01110106  RH  097%=      5-min Rain = 0
KWT1 250914Z 26007KT 11/11 A2987 RMK A01 T01110106  RH  097%=      5-min Rain = 0
KWT1 250915Z 26007KT 11/11 A2987 RMK A01 T01110106  RH  097%=      5-min Rain = 0
KWT1 250916Z 26007KT 11/11 A2987 RMK A01 T01110106  RH  097%=      5-min Rain = 0
KWT1 250917Z 26008KT 11/11 A2987 RMK A01 T01100106  RH  097%=      5-min Rain = 0
KWT1 250918Z 26007KT 11/11 A2987 RMK A01 T01110107  RH  097%=      5-min Rain = 0
KWT1 250919Z 26008KT 11/11 A2987 RMK A01 T01120107  RH  097%=      5-min Rain = 0
KWT1 250920Z 26008KT 11/11 A2987 RMK A01 T01110107  RH  097%=      5-min Rain = 0
KWT1 250921Z 26008KT 11/11 A2987 RMK A01 T01110107  RH  097%=      5-min Rain = 0
KWT1 250922Z 26008KT 11/11 A2987 RMK A01 T01110107  RH  097%=      5-min Rain = 0
KWT1 250923Z 26008KT 11/11 A2987 RMK A01 T01120107  RH  097%=      5-min Rain = 0
KWT1 250924Z 26008KT 11/11 A2987 RMK A01 T01110107  RH  097%=      5-min Rain = 0
KWT1 250925Z 27008KT 11/11 A2987 RMK A01 T01110107  RH  097%=      5-min Rain = 0
KWT1 250926Z 26008KT 11/11 A2988 RMK A01 T01110107  RH  097%=      5-min Rain = 0
KWT1 250927Z 26009KT 11/11 A2988 RMK A01 T01120107  RH  097%=      5-min Rain = 0
KWT1 250928Z 26007KT 11/11 A2988 RMK A01 T01120107  RH  097%=      5-min Rain = 0
KWT1 250929Z 26008KT 11/11 A2987 RMK A01 T01120107  RH  097%=      5-min Rain = 0
KWT1 250930Z 26008KT 11/11 A2987 RMK A01 T01120107  RH  097%=      5-min Rain = 0
KWT1 250931Z 27008KT 11/11 A2987 RMK A01 T01120107  RH  097%=      5-min Rain = 0
KWT1 250932Z 26008KT 11/11 A2988 RMK A01 T01120107  RH  097%=      5-min Rain = 0
KWT1 250933Z 26009KT 11/11 A2987 RMK A01 T01120108  RH  097%=      5-min Rain = 0
KWT1 250934Z 26009KT 11/11 A2987 RMK A01 T01130108  RH  097%=      5-min Rain = 0
KWT1 250935Z 26009KT 11/11 A2987 RMK A01 T01120107  RH  097%=      5-min Rain = 0
KWT1 250936Z 26009KT 11/11 A2987 RMK A01 T01130108  RH  097%=      5-min Rain = 0
KWT1 250937Z 26009KT 11/11 A2987 RMK A01 T01130108  RH  097%=      5-min Rain = 0
KWT1 250938Z 26009KT 11/11 A2987 RMK A01 T01140109  RH  097%=      5-min Rain = 0
KWT1 250939Z 26009KT 11/11 A2987 RMK A01 T01140108  RH  097%=      5-min Rain = 0
KWT1 250940Z 26009KT 11/11 A2987 RMK A01 T01140108  RH  096%=      5-min Rain = 0
KWT1 250941Z 26010KT 11/11 A2987 RMK A01 T01140108  RH  096%=      5-min Rain = 0
KWT1 250942Z 26009KT 11/11 A2987 RMK A01 T01140109  RH  096%=      5-min Rain = 0
KWT1 250943Z 26009KT 11/11 A2987 RMK A01 T01140108  RH  096%=      5-min Rain = 0
KWT1 250944Z 26009KT 12/11 A2987 RMK A01 T01150109  RH  096%=      5-min Rain = 0
KWT1 250945Z 26008KT 12/11 A2987 RMK A01 T01150109  RH  096%=      5-min Rain = 0
KWT1 250946Z 26010KT 12/11 A2987 RMK A01 T01150108  RH  096%=      5-min Rain = 0
KWT1 250947Z 26009KT 12/11 A2987 RMK A01 T01150108  RH  096%=      5-min Rain = 0
KWT1 250948Z 26010KT 12/11 A2987 RMK A01 T01150109  RH  096%=      5-min Rain = 0
KWT1 250949Z 26010KT 11/11 A2987 RMK A01 T01140108  RH  096%=      5-min Rain = 0
KWT1 250950Z 26009KT 11/11 A2987 RMK A01 T01140108  RH  096%=      5-min Rain = 0
KWT1 250951Z 26009KT 11/11 A2987 RMK A01 T01140108  RH  096%=      5-min Rain = 0
KWT1 250952Z 26010KT 11/11 A2987 RMK A01 T01140108  RH  096%=      5-min Rain = 0
KWT1 250953Z 26010KT 11/11 A2987 RMK A01 T01140109  RH  096%=      5-min Rain = 0
KWT1 250954Z 26010KT 11/11 A2987 RMK A01 T01140108  RH  096%=      5-min Rain = 0
KWT1 250955Z 26009KT 11/11 A2987 RMK A01 T01140108  RH  096%=      5-min Rain = 0
KWT1 250956Z 26012KT 11/11 A2987 RMK A01 T01140108  RH  096%=      5-min Rain = 0
KWT1 250957Z 26011KT 11/11 A2987 RMK A01 T01140108  RH  096%=      5-min Rain = 0
KWT1 250958Z 26011KT 11/11 A2987 RMK A01 T01140108  RH  096%=      5-min Rain = 0
KWT1 250959Z 26011KT 12/11 A2987 RMK A01 T01150109  RH  096%=      5-min Rain = 0
KWT1 251000Z 26011KT 12/11 A2987 RMK A01 T01150108  RH  096%=      5-min Rain = 0
KWT1 251001Z 26011KT 12/11 A2987 RMK A01 T01150108  RH  096%=      5-min Rain = 0
KWT1 251002Z 26011KT 12/11 A2987 RMK A01 T01150109  RH  096%=      5-min Rain = 0
KWT1 251003Z 26011KT 12/11 A2987 RMK A01 T01150108  RH  096%=      5-min Rain = 0
KWT1 251004Z 26011KT 12/11 A2987 RMK A01 T01150109  RH  096%=      5-min Rain = 0
KWT1 251005Z 25010KT 12/11 A2987 RMK A01 T01160108  RH  095%=      5-min Rain = 0
KWT1 251006Z 26010KT 12/11 A2987 RMK A01 T01160108  RH  095%=      5-min Rain = 0
KWT1 251007Z 26010KT 12/11 A2987 RMK A01 T01150108  RH  095%=      5-min Rain = 0
KWT1 251008Z 26010KT 12/11 A2987 RMK A01 T01150108  RH  095%=      5-min Rain = 0
KWT1 251009Z 26010KT 12/11 A2987 RMK A01 T01150107  RH  095%=      5-min Rain = 0
KWT1 251010Z 26009KT 12/11 A2987 RMK A01 T01150108  RH  095%=      5-min Rain = 0
KWT1 251011Z 26009KT 11/11 A2987 RMK A01 T01140107  RH  095%=      5-min Rain = 0
KWT1 251012Z 26011KT 11/11 A2987 RMK A01 T01140107  RH  095%=      5-min Rain = 0
KWT1 251013Z 26009KT 11/11 A2987 RMK A01 T01140107  RH  096%=      5-min Rain = 0
KWT1 251014Z 26010KT 11/11 A2987 RMK A01 T01140108  RH  096%=      5-min Rain = 0
KWT1 251015Z 26010KT 11/11 A2987 RMK A01 T01140107  RH  096%=      5-min Rain = 0
KWT1 251016Z 26010KT 11/11 A2987 RMK A01 T01140108  RH  096%=      5-min Rain = 0
KWT1 251017Z 26009KT 11/11 A2987 RMK A01 T01140107  RH  096%=      5-min Rain = 0
KWT1 251018Z 26010KT 11/11 A2987 RMK A01 T01140108  RH  096%=      5-min Rain = 0
KWT1 251019Z 26010KT 11/11 A2987 RMK A01 T01140107  RH  096%=      5-min Rain = 0
KWT1 251020Z 26010KT 11/11 A2987 RMK A01 T01140108  RH  096%=      5-min Rain = 0
KWT1 251021Z 26011KT 11/11 A2987 RMK A01 T01140108  RH  096%=      5-min Rain = 0
KWT1 251022Z 26010KT 12/11 A2987 RMK A01 T01150108  RH  096%=      5-min Rain = 0
KWT1 251023Z 26010KT 12/11 A2987 RMK A01 T01150108  RH  095%=      5-min Rain = 0
KWT1 251024Z 26011KT 12/11 A2987 RMK A01 T01150108  RH  095%=      5-min Rain = 0
KWT1 251025Z 26010KT 12/11 A2987 RMK A01 T01150108  RH  095%=      5-min Rain = 0
KWT1 251026Z 26010KT 12/11 A2987 RMK A01 T01150108  RH  095%=      5-min Rain = 0
KWT1 251027Z 26011KT 12/11 A2987 RMK A01 T01150107  RH  095%=      5-min Rain = 0
KWT1 251028Z 26011KT 12/11 A2987 RMK A01 T01150107  RH  095%=      5-min Rain = 0
KWT1 251029Z 26011KT 12/11 A2987 RMK A01 T01160108  RH  095%=      5-min Rain = 0
KWT1 251030Z 26012KT 12/11 A2987 RMK A01 T01160108  RH  095%=      5-min Rain = 0
KWT1 251031Z 26012KT 12/11 A2987 RMK A01 T01170108  RH  094%=      5-min Rain = 0
KWT1 251032Z 26012KT 12/11 A2987 RMK A01 T01170108  RH  094%=      5-min Rain = 0
KWT1 251033Z 25011KT 12/11 A2987 RMK A01 T01170107  RH  094%=      5-min Rain = 0
KWT1 251034Z 26012KT 12/11 A2987 RMK A01 T01170107  RH  094%=      5-min Rain = 0
KWT1 251035Z 26011KT 12/11 A2987 RMK A01 T01160107  RH  094%=      5-min Rain = 0
KWT1 251036Z 26011KT 12/11 A2987 RMK A01 T01160107  RH  094%=      5-min Rain = 0
KWT1 251037Z 25011KT 12/11 A2987 RMK A01 T01160107  RH  094%=      5-min Rain = 0
KWT1 251038Z 25010KT 12/11 A2987 RMK A01 T01160107  RH  094%=      5-min Rain = 0
KWT1 251039Z 25011KT 12/11 A2987 RMK A01 T01160107  RH  094%=      5-min Rain = 0
KWT1 251040Z 25011KT 12/11 A2987 RMK A01 T01160107  RH  094%=      5-min Rain = 0
KWT1 251041Z 26012KT 12/11 A2987 RMK A01 T01160107  RH  094%=      5-min Rain = 0
KWT1 251042Z 25011KT 12/11 A2987 RMK A01 T01160107  RH  094%=      5-min Rain = 0
KWT1 251043Z 26011KT 12/11 A2987 RMK A01 T01160107  RH  094%=      5-min Rain = 0
KWT1 251044Z 26011KT 12/11 A2987 RMK A01 T01160107  RH  094%=      5-min Rain = 0
KWT1 251045Z 26011KT 12/11 A2987 RMK A01 T01160107  RH  094%=      5-min Rain = 0
KWT1 251046Z 25011KT 12/11 A2987 RMK A01 T01160107  RH  094%=      5-min Rain = 0
KWT1 251047Z 25011KT 12/11 A2987 RMK A01 T01160107  RH  094%=      5-min Rain = 0
KWT1 251048Z 25010KT 12/11 A2987 RMK A01 T01160106  RH  094%=      5-min Rain = 0
KWT1 251049Z 25010KT 12/11 A2987 RMK A01 T01150106  RH  094%=      5-min Rain = 0
KWT1 251050Z 25011KT 12/11 A2987 RMK A01 T01150106  RH  094%=      5-min Rain = 0
KWT1 251051Z 26011KT 12/11 A2987 RMK A01 T01150106  RH  094%=      5-min Rain = 0
KWT1 251052Z 26011KT 12/11 A2987 RMK A01 T01150106  RH  095%=      5-min Rain = 0
KWT1 251053Z 26011KT 11/11 A2987 RMK A01 T01140106  RH  095%=      5-min Rain = 0
KWT1 251054Z 25011KT 12/11 A2987 RMK A01 T01150106  RH  095%=      5-min Rain = 0
KWT1 251055Z 26011KT 11/11 A2987 RMK A01 T01140106  RH  095%=      5-min Rain = 0
KWT1 251056Z 26011KT 11/11 A2987 RMK A01 T01140106  RH  095%=      5-min Rain = 0
KWT1 251057Z 26011KT 11/11 A2987 RMK A01 T01140106  RH  095%=      5-min Rain = 0
KWT1 251058Z 26012KT 11/11 A2987 RMK A01 T01140106  RH  095%=      5-min Rain = 0
KWT1 251059Z 26010KT 11/11 A2987 RMK A01 T01140106  RH  095%=      5-min Rain = 0
KWT1 251100Z 26010KT 11/11 A2987 RMK A01 T01140106  RH  095%=      5-min Rain = 0
KWT1 251101Z 26010KT 11/11 A2987 RMK A01 T01130105  RH  095%=      5-min Rain = 0
KWT1 251102Z 26010KT 11/11 A2987 RMK A01 T01130105  RH  095%=      5-min Rain = 0
KWT1 251103Z 26011KT 11/11 A2987 RMK A01 T01130105  RH  095%=      5-min Rain = 0
KWT1 251104Z 26010KT 11/11 A2987 RMK A01 T01130105  RH  095%=      5-min Rain = 0
KWT1 251105Z 26011KT 11/11 A2987 RMK A01 T01130105  RH  095%=      5-min Rain = 0
KWT1 251106Z 26010KT 11/11 A2988 RMK A01 T01120105  RH  095%=      5-min Rain = 0
KWT1 251107Z 26010KT 11/11 A2988 RMK A01 T01120105  RH  095%=      5-min Rain = 0
KWT1 251108Z 26011KT 11/11 A2988 RMK A01 T01120105  RH  095%=      5-min Rain = 0
KWT1 251109Z 26010KT 11/11 A2988 RMK A01 T01120105  RH  095%=      5-min Rain = 0
KWT1 251110Z 25010KT 11/11 A2988 RMK A01 T01120105  RH  095%=      5-min Rain = 0
KWT1 251111Z 26010KT 11/11 A2988 RMK A01 T01120105  RH  095%=      5-min Rain = 0
KWT1 251112Z 26011KT 11/11 A2988 RMK A01 T01120105  RH  095%=      5-min Rain = 0
KWT1 251113Z 26010KT 11/11 A2988 RMK A01 T01120105  RH  095%=      5-min Rain = 0
KWT1 251114Z 26011KT 11/10 A2988 RMK A01 T01110104  RH  095%=      5-min Rain = 0
KWT1 251115Z 26010KT 11/10 A2988 RMK A01 T01120104  RH  095%=      5-min Rain = 0
KWT1 251116Z 26010KT 11/10 A2988 RMK A01 T01120104  RH  095%=      5-min Rain = 0
KWT1 251117Z 26011KT 11/10 A2988 RMK A01 T01110104  RH  095%=      5-min Rain = 0
KWT1 251118Z 26011KT 11/10 A2988 RMK A01 T01110104  RH  095%=      5-min Rain = 0
KWT1 251119Z 25011KT 11/10 A2988 RMK A01 T01110104  RH  095%=      5-min Rain = 0
KWT1 251120Z 26011KT 11/10 A2988 RMK A01 T01120104  RH  095%=      5-min Rain = 0
KWT1 251121Z 26011KT 11/11 A2988 RMK A01 T01120105  RH  095%=      5-min Rain = 0
KWT1 251122Z 26011KT 11/11 A2988 RMK A01 T01120105  RH  095%=      5-min Rain = 0
KWT1 251123Z 25011KT 11/10 A2988 RMK A01 T01120104  RH  095%=      5-min Rain = 0
KWT1 251124Z 26011KT 11/11 A2988 RMK A01 T01120105  RH  095%=      5-min Rain = 0
KWT1 251125Z 26011KT 11/11 A2988 RMK A01 T01120105  RH  095%=      5-min Rain = 0
KWT1 251126Z 25011KT 11/11 A2988 RMK A01 T01120105  RH  095%=      5-min Rain = 0
KWT1 251127Z 25011KT 11/11 A2988 RMK A01 T01130105  RH  095%=      5-min Rain = 0
KWT1 251128Z 25011KT 11/11 A2988 RMK A01 T01120105  RH  095%=      5-min Rain = 0
KWT1 251129Z 25011KT 11/10 A2988 RMK A01 T01120104  RH  095%=      5-min Rain = 0
KWT1 251130Z 25011KT 11/10 A2988 RMK A01 T01120104  RH  095%=      5-min Rain = 0
KWT1 251131Z 26011KT 11/10 A2988 RMK A01 T01120104  RH  095%=      5-min Rain = 0
KWT1 251132Z 25010KT 11/10 A2988 RMK A01 T01120104  RH  095%=      5-min Rain = 0
KWT1 251133Z 25012KT 11/11 A2988 RMK A01 T01120105  RH  095%=      5-min Rain = 0
KWT1 251134Z 25011KT 11/10 A2988 RMK A01 T01120104  RH  095%=      5-min Rain = 0
KWT1 251135Z 26011KT 11/11 A2988 RMK A01 T01120105  RH  095%=      5-min Rain = 0
KWT1 251136Z 26011KT 11/10 A2988 RMK A01 T01120104  RH  095%=      5-min Rain = 0
KWT1 251137Z 25011KT 11/10 A2988 RMK A01 T01120104  RH  095%=      5-min Rain = 0
KWT1 251138Z 25011KT 11/10 A2988 RMK A01 T01110104  RH  095%=      5-min Rain = 0
KWT1 251139Z 25011KT 11/10 A2988 RMK A01 T01110104  RH  095%=      5-min Rain = 0
KWT1 251140Z 25011KT 11/10 A2988 RMK A01 T01110104  RH  095%=      5-min Rain = 0
KWT1 251141Z 25011KT 11/10 A2988 RMK A01 T01120104  RH  095%=      5-min Rain = 0
KWT1 251142Z 25012KT 11/10 A2988 RMK A01 T01120104  RH  095%=      5-min Rain = 0
KWT1 251143Z 25011KT 11/10 A2988 RMK A01 T01120104  RH  095%=      5-min Rain = 0
KWT1 251144Z 25011KT 11/10 A2988 RMK A01 T01120104  RH  095%=      5-min Rain = 0
KWT1 251145Z 25010KT 11/10 A2988 RMK A01 T01120104  RH  095%=      5-min Rain = 0
KWT1 251146Z 25010KT 11/10 A2988 RMK A01 T01120104  RH  095%=      5-min Rain = 0
KWT1 251147Z 25012KT 11/10 A2988 RMK A01 T01120104  RH  095%=      5-min Rain = 0
KWT1 251148Z 25010KT 11/10 A2988 RMK A01 T01120104  RH  095%=      5-min Rain = 0
KWT1 251149Z 26011KT 11/10 A2988 RMK A01 T01120104  RH  095%=      5-min Rain = 0
KWT1 251150Z 26010KT 11/10 A2988 RMK A01 T01120104  RH  095%=      5-min Rain = 0
KWT1 251151Z 25010KT 11/10 A2988 RMK A01 T01120104  RH  094%=      5-min Rain = 0
KWT1 251152Z 26010KT 11/10 A2988 RMK A01 T01120104  RH  094%=      5-min Rain = 0
KWT1 251153Z 26011KT 11/10 A2988 RMK A01 T01120103  RH  094%=      5-min Rain = 0
KWT1 251154Z 26010KT 11/10 A2988 RMK A01 T01120103  RH  094%=      5-min Rain = 0
KWT1 251155Z 26009KT 11/10 A2988 RMK A01 T01120103  RH  094%=      5-min Rain = 0
KWT1 251156Z 26011KT 11/10 A2988 RMK A01 T01130103  RH  094%=      5-min Rain = 0
KWT1 251157Z 26010KT 11/10 A2988 RMK A01 T01130104  RH  094%=      5-min Rain = 0
KWT1 251158Z 26010KT 11/10 A2988 RMK A01 T01130103  RH  094%=      5-min Rain = 0
KWT1 251159Z 26010KT 11/10 A2989 RMK A01 T01130103  RH  093%=      5-min Rain = 0
KWT1 251200Z 26010KT 11/10 A2989 RMK A01 T01130103  RH  093%=      5-min Rain = 0
KWT1 251201Z 27010KT 11/10 A2989 RMK A01 T01140103  RH  093%=      5-min Rain = 0
KWT1 251202Z 26010KT 11/10 A2989 RMK A01 T01140103  RH  093%=      5-min Rain = 0
KWT1 251203Z 26010KT 11/10 A2989 RMK A01 T01140103  RH  093%=      5-min Rain = 0
KWT1 251204Z 26010KT 11/10 A2989 RMK A01 T01140103  RH  093%=      5-min Rain = 0
KWT1 251205Z 26011KT 11/10 A2989 RMK A01 T01140103  RH  093%=      5-min Rain = 0
KWT1 251206Z 26010KT 11/10 A2989 RMK A01 T01140103  RH  093%=      5-min Rain = 0
KWT1 251207Z 26010KT 11/10 A2989 RMK A01 T01130102  RH  093%=      5-min Rain = 0
KWT1 251208Z 26010KT 11/10 A2989 RMK A01 T01130103  RH  094%=      5-min Rain = 0
KWT1 251209Z 27010KT 11/10 A2989 RMK A01 T01120102  RH  094%=      5-min Rain = 0
KWT1 251210Z 27009KT 11/10 A2989 RMK A01 T01120103  RH  094%=      5-min Rain = 0
KWT1 251211Z 27010KT 11/10 A2989 RMK A01 T01120103  RH  094%=      5-min Rain = 0
KWT1 251212Z 27009KT 11/10 A2989 RMK A01 T01120103  RH  094%=      5-min Rain = 0
KWT1 251213Z 27010KT 11/10 A2989 RMK A01 T01110103  RH  094%=      5-min Rain = 0
KWT1 251214Z 26011KT 11/10 A2989 RMK A01 T01120103  RH  094%=      5-min Rain = 0
KWT1 251215Z 27009KT 11/10 A2989 RMK A01 T01110103  RH  094%=      5-min Rain = 0
KWT1 251216Z 27010KT 11/10 A2989 RMK A01 T01120103  RH  094%=      5-min Rain = 0
KWT1 251217Z 27011KT 11/10 A2989 RMK A01 T01120103  RH  094%=      5-min Rain = 0
KWT1 251218Z 26011KT 11/10 A2989 RMK A01 T01130103  RH  094%=      5-min Rain = 0
KWT1 251219Z 26011KT 11/10 A2989 RMK A01 T01130103  RH  093%=      5-min Rain = 0
KWT1 251220Z 26011KT 11/10 A2989 RMK A01 T01140103  RH  093%=      5-min Rain = 0
KWT1 251221Z 26011KT 11/10 A2989 RMK A01 T01140103  RH  093%=      5-min Rain = 0
KWT1 251222Z 26012KT 11/10 A2989 RMK A01 T01140102  RH  093%=      5-min Rain = 0
KWT1 251223Z 26010KT 12/10 A2989 RMK A01 T01150103  RH  092%=      5-min Rain = 0
KWT1 251224Z 26010KT 12/10 A2989 RMK A01 T01150103  RH  092%=      5-min Rain = 0
KWT1 251225Z 26011KT 12/10 A2989 RMK A01 T01150102  RH  092%=      5-min Rain = 0
KWT1 251226Z 26010KT 12/10 A2989 RMK A01 T01150102  RH  092%=      5-min Rain = 0
KWT1 251227Z 26009KT 12/10 A2989 RMK A01 T01160102  RH  092%=      5-min Rain = 0
KWT1 251228Z 26010KT 12/10 A2989 RMK A01 T01160102  RH  091%=      5-min Rain = 0
KWT1 251229Z 26009KT 12/10 A2989 RMK A01 T01160102  RH  091%=      5-min Rain = 0
KWT1 251230Z 26009KT 12/10 A2989 RMK A01 T01160102  RH  091%=      5-min Rain = 0
KWT1 251231Z 26009KT 12/10 A2989 RMK A01 T01160102  RH  091%=      5-min Rain = 0
KWT1 251232Z 26010KT 12/10 A299 RMK A01 T01170102  RH  091%=      5-min Rain = 0
KWT1 251233Z 26010KT 12/10 A299 RMK A01 T01170102  RH  091%=      5-min Rain = 0
KWT1 251234Z 26009KT 12/10 A299 RMK A01 T01170102  RH  090%=      5-min Rain = 0
KWT1 251235Z 26009KT 12/10 A299 RMK A01 T01170102  RH  090%=      5-min Rain = 0
KWT1 251236Z 26009KT 12/10 A299 RMK A01 T01170102  RH  090%=      5-min Rain = 0
KWT1 251237Z 26009KT 12/10 A299 RMK A01 T01170102  RH  091%=      5-min Rain = 0
KWT1 251238Z 26009KT 12/10 A299 RMK A01 T01170102  RH  091%=      5-min Rain = 0
KWT1 251239Z 26008KT 12/10 A299 RMK A01 T01170102  RH  090%=      5-min Rain = 0
KWT1 251240Z 26009KT 12/10 A299 RMK A01 T01170102  RH  090%=      5-min Rain = 0
KWT1 251241Z 26008KT 12/10 A299 RMK A01 T01180103  RH  090%=      5-min Rain = 0
KWT1 251242Z 26009KT 12/10 A299 RMK A01 T01180103  RH  090%=      5-min Rain = 0
KWT1 251243Z 26009KT 12/10 A299 RMK A01 T01190103  RH  090%=      5-min Rain = 0
KWT1 251244Z 26009KT 12/10 A299 RMK A01 T01200103  RH  089%=      5-min Rain = 0
KWT1 251245Z 26007KT 12/10 A2991 RMK A01 T01210103  RH  089%=      5-min Rain = 0
KWT1 251246Z 26007KT 12/10 A2991 RMK A01 T01210103  RH  088%=      5-min Rain = 0
KWT1 251247Z 27006KT 12/10 A2991 RMK A01 T01220103  RH  088%=      5-min Rain = 0
KWT1 251248Z 26006KT 12/10 A2991 RMK A01 T01220103  RH  088%=      5-min Rain = 0
KWT1 251249Z 27006KT 12/10 A2991 RMK A01 T01220103  RH  088%=      5-min Rain = 0
KWT1 251250Z 26007KT 12/10 A2991 RMK A01 T01220103  RH  088%=      5-min Rain = 0
KWT1 251251Z 26006KT 12/10 A2991 RMK A01 T01220103  RH  088%=      5-min Rain = 0
KWT1 251252Z 26005KT 12/10 A2991 RMK A01 T01220103  RH  088%=      5-min Rain = 0
KWT1 251253Z 25006KT 12/10 A2991 RMK A01 T01220103  RH  088%=      5-min Rain = 0
KWT1 251254Z 25004KT 12/10 A2991 RMK A01 T01220103  RH  088%=      5-min Rain = 0
KWT1 251255Z 26005KT 12/10 A2991 RMK A01 T01220104  RH  089%=      5-min Rain = 0
KWT1 251256Z 26005KT 12/10 A2991 RMK A01 T01220104  RH  088%=      5-min Rain = 0
KWT1 251257Z 25006KT 12/10 A2991 RMK A01 T01220103  RH  088%=      5-min Rain = 0
KWT1 251258Z 26005KT 12/10 A2991 RMK A01 T01220103  RH  088%=      5-min Rain = 0
KWT1 251259Z 26007KT 12/10 A2991 RMK A01 T01220103  RH  088%=      5-min Rain = 0
KWT1 251300Z 26006KT 12/10 A2991 RMK A01 T01220103  RH  088%=      5-min Rain = 0
KWT1 251301Z 27006KT 12/10 A2991 RMK A01 T01220104  RH  089%=      5-min Rain = 0
KWT1 251302Z 26005KT 12/10 A2991 RMK A01 T01220104  RH  089%=      5-min Rain = 0
KWT1 251303Z 26005KT 12/10 A2991 RMK A01 T01220104  RH  089%=      5-min Rain = 0
KWT1 251304Z 26007KT 12/11 A2991 RMK A01 T01220105  RH  089%=      5-min Rain = 0
KWT1 251305Z 25005KT 12/10 A2991 RMK A01 T01230104  RH  089%=      5-min Rain = 0
KWT1 251306Z 26005KT 12/10 A2991 RMK A01 T01230104  RH  088%=      5-min Rain = 0
KWT1 251307Z 26005KT 12/11 A2992 RMK A01 T01230105  RH  089%=      5-min Rain = 0
KWT1 251308Z 26006KT 12/10 A2992 RMK A01 T01230104  RH  088%=      5-min Rain = 0
KWT1 251309Z 26004KT 12/11 A2992 RMK A01 T01240105  RH  089%=      5-min Rain = 0
KWT1 251310Z 26005KT 12/11 A2992 RMK A01 T01240106  RH  089%=      5-min Rain = 0
KWT1 251311Z 27005KT 12/11 A2992 RMK A01 T01240106  RH  088%=      5-min Rain = 0
KWT1 251312Z 27005KT 13/11 A2992 RMK A01 T01250106  RH  088%=      5-min Rain = 0
KWT1 251313Z 26005KT 13/11 A2992 RMK A01 T01250106  RH  088%=      5-min Rain = 0
KWT1 251314Z 26005KT 13/11 A2992 RMK A01 T01250106  RH  088%=      5-min Rain = 0
KWT1 251315Z 27006KT 13/11 A2992 RMK A01 T01260107  RH  088%=      5-min Rain = 0
KWT1 251316Z 26006KT 13/11 A2992 RMK A01 T01260107  RH  088%=      5-min Rain = 0
KWT1 251317Z 26005KT 13/11 A2992 RMK A01 T01270107  RH  088%=      5-min Rain = 0
KWT1 251318Z 27006KT 13/11 A2992 RMK A01 T01270107  RH  088%=      5-min Rain = 0
KWT1 251319Z 27003KT 13/11 A2992 RMK A01 T01280108  RH  088%=      5-min Rain = 0
KWT1 251320Z 26004KT 13/11 A2992 RMK A01 T01290110  RH  088%=      5-min Rain = 0
KWT1 251321Z 27005KT 13/11 A2992 RMK A01 T01290108  RH  087%=      5-min Rain = 0
KWT1 251322Z 27003KT 13/11 A2992 RMK A01 T01300109  RH  088%=      5-min Rain = 0
KWT1 251323Z 27004KT 13/11 A2992 RMK A01 T01310110  RH  087%=      5-min Rain = 0
KWT1 251324Z 27004KT 13/11 A2992 RMK A01 T01310110  RH  087%=      5-min Rain = 0
KWT1 251325Z 27004KT 13/11 A2992 RMK A01 T01320111  RH  087%=      5-min Rain = 0
KWT1 251326Z 27004KT 13/11 A2992 RMK A01 T01320111  RH  087%=      5-min Rain = 0
KWT1 251327Z 26004KT 13/11 A2992 RMK A01 T01330110  RH  086%=      5-min Rain = 0
KWT1 251328Z 28003KT 13/11 A2992 RMK A01 T01320110  RH  086%=      5-min Rain = 0
KWT1 251329Z 27003KT 13/11 A2992 RMK A01 T01330113  RH  087%=      5-min Rain = 0
KWT1 251330Z 26004KT 13/11 A2992 RMK A01 T01340113  RH  087%=      5-min Rain = 0
KWT1 251331Z 27003KT 14/11 A2992 RMK A01 T01350111  RH  086%=      5-min Rain = 0
KWT1 251332Z 27002KT 14/11 A2992 RMK A01 T01350113  RH  086%=      5-min Rain = 0
KWT1 251333Z 27004KT 14/11 A2992 RMK A01 T01360111  RH  085%=      5-min Rain = 0
KWT1 251334Z 26003KT 14/11 A2992 RMK A01 T01360112  RH  085%=      5-min Rain = 0
KWT1 251335Z 26004KT 14/11 A2992 RMK A01 T01370114  RH  086%=      5-min Rain = 0
KWT1 251336Z 26005KT 14/11 A2992 RMK A01 T01380113  RH  085%=      5-min Rain = 0
KWT1 251337Z 27005KT 14/11 A2992 RMK A01 T01390114  RH  085%=      5-min Rain = 0
KWT1 251338Z 27005KT 14/11 A2992 RMK A01 T01390113  RH  084%=      5-min Rain = 0
KWT1 251339Z 27007KT 14/11 A2992 RMK A01 T01400114  RH  084%=      5-min Rain = 0
KWT1 251340Z 27008KT 14/11 A2992 RMK A01 T01410113  RH  084%=      5-min Rain = 0
KWT1 251341Z 26006KT 14/11 A2992 RMK A01 T01410112  RH  083%=      5-min Rain = 0
KWT1 251342Z 26005KT 14/12 A2993 RMK A01 T01410115  RH  084%=      5-min Rain = 0
KWT1 251343Z 26007KT 14/12 A2993 RMK A01 T01420115  RH  084%=      5-min Rain = 0
KWT1 251344Z 26009KT 14/11 A2993 RMK A01 T01420113  RH  083%=      5-min Rain = 0
KWT1 251345Z 26006KT 14/11 A2993 RMK A01 T01410112  RH  082%=      5-min Rain = 0
KWT1 251346Z 25005KT 14/12 A2993 RMK A01 T01410116  RH  085%=      5-min Rain = 0
KWT1 251347Z 26007KT 14/12 A2993 RMK A01 T01420115  RH  084%=      5-min Rain = 0
KWT1 251348Z 26007KT 14/11 A2993 RMK A01 T01420114  RH  084%=      5-min Rain = 0
KWT1 251349Z 27004KT 14/12 A2993 RMK A01 T01420116  RH  084%=      5-min Rain = 0
KWT1 251350Z 25005KT 14/12 A2992 RMK A01 T01420117  RH  085%=      5-min Rain = 0
KWT1 251351Z 25007KT 14/12 A2993 RMK A01 T01430118  RH  085%=      5-min Rain = 0
KWT1 251352Z 25007KT 14/12 A2993 RMK A01 T01430116  RH  084%=      5-min Rain = 0
KWT1 251353Z 25009KT 14/12 A2993 RMK A01 T01420115  RH  083%=      5-min Rain = 0
KWT1 251354Z 26008KT 14/11 A2993 RMK A01 T01410113  RH  083%=      5-min Rain = 0
KWT1 251355Z 26007KT 14/12 A2993 RMK A01 T01410115  RH  084%=      5-min Rain = 0
KWT1 251356Z 26006KT 14/12 A2993 RMK A01 T01410116  RH  085%=      5-min Rain = 0
KWT1 251357Z 26007KT 14/12 A2993 RMK A01 T01420117  RH  085%=      5-min Rain = 0
KWT1 251358Z 26006KT 14/12 A2993 RMK A01 T01420116  RH  084%=      5-min Rain = 0
KWT1 251359Z 26008KT 14/12 A2993 RMK A01 T01420116  RH  084%=      5-min Rain = 0
KWT1 251400Z 26006KT 14/12 A2993 RMK A01 T01430116  RH  084%=      5-min Rain = 0
KWT1 251401Z 26008KT 14/12 A2993 RMK A01 T01430117  RH  084%=      5-min Rain = 0
KWT1 251402Z 26009KT 14/12 A2993 RMK A01 T01440116  RH  083%=      5-min Rain = 0
KWT1 251403Z 26007KT 14/12 A2993 RMK A01 T01430115  RH  083%=      5-min Rain = 0
KWT1 251404Z 26007KT 14/12 A2993 RMK A01 T01440118  RH  084%=      5-min Rain = 0
KWT1 251405Z 27006KT 14/12 A2993 RMK A01 T01440116  RH  083%=      5-min Rain = 0
KWT1 251406Z 27006KT 15/12 A2993 RMK A01 T01450118  RH  084%=      5-min Rain = 0
KWT1 251407Z 27006KT 15/12 A2993 RMK A01 T01460121  RH  084%=      5-min Rain = 0
KWT1 251408Z 26005KT 15/12 A2993 RMK A01 T01470119  RH  083%=      5-min Rain = 0
KWT1 251409Z 25005KT 15/12 A2993 RMK A01 T01490123  RH  084%=      5-min Rain = 0
KWT1 251410Z 26006KT 15/12 A2992 RMK A01 T01490121  RH  083%=      5-min Rain = 0
KWT1 251411Z 25006KT 15/12 A2992 RMK A01 T01490118  RH  082%=      5-min Rain = 0
KWT1 251412Z 25005KT 15/12 A2993 RMK A01 T01490118  RH  082%=      5-min Rain = 0
KWT1 251413Z 27004KT 15/12 A2993 RMK A01 T01480117  RH  082%=      5-min Rain = 0
KWT1 251414Z 27006KT 15/12 A2993 RMK A01 T01490120  RH  083%=      5-min Rain = 0
KWT1 251415Z 27004KT 15/12 A2993 RMK A01 T01490117  RH  081%=      5-min Rain = 0
KWT1 251416Z 28005KT 15/12 A2993 RMK A01 T01490118  RH  082%=      5-min Rain = 0
KWT1 251417Z 27005KT 15/12 A2993 RMK A01 T01500118  RH  081%=      5-min Rain = 0
KWT1 251418Z 25004KT 15/12 A2993 RMK A01 T01510122  RH  082%=      5-min Rain = 0
KWT1 251419Z 27005KT 15/12 A2993 RMK A01 T01530121  RH  081%=      5-min Rain = 0
KWT1 251420Z 28004KT 15/12 A2993 RMK A01 T01530122  RH  081%=      5-min Rain = 0
KWT1 251421Z 26005KT 16/13 A2993 RMK A01 T01560128  RH  083%=      5-min Rain = 0
KWT1 251422Z 26006KT 16/12 A2993 RMK A01 T01570121  RH  079%=      5-min Rain = 0
KWT1 251423Z 26007KT 16/12 A2993 RMK A01 T01560120  RH  079%=      5-min Rain = 0
KWT1 251424Z 27006KT 16/12 A2993 RMK A01 T01560120  RH  079%=      5-min Rain = 0
KWT1 251425Z 26006KT 16/12 A2993 RMK A01 T01560122  RH  080%=      5-min Rain = 0
KWT1 251426Z 28005KT 16/12 A2993 RMK A01 T01570123  RH  080%=      5-min Rain = 0
KWT1 251427Z 26005KT 16/12 A2993 RMK A01 T01590122  RH  079%=      5-min Rain = 0
KWT1 251428Z 25005KT 16/12 A2993 RMK A01 T01590121  RH  078%=      5-min Rain = 0
KWT1 251429Z 25006KT 16/12 A2993 RMK A01 T01580123  RH  079%=      5-min Rain = 0
KWT1 251430Z 27005KT 16/12 A2993 RMK A01 T01580122  RH  079%=      5-min Rain = 0
KWT1 251431Z 27007KT 16/12 A2993 RMK A01 T01590122  RH  079%=      5-min Rain = 0
KWT1 251432Z 27006KT 16/12 A2993 RMK A01 T01590122  RH  078%=      5-min Rain = 0
KWT1 251433Z 28006KT 16/12 A2993 RMK A01 T01600123  RH  078%=      5-min Rain = 0
KWT1 251434Z 26006KT 16/12 A2993 RMK A01 T01600123  RH  078%=      5-min Rain = 0
KWT1 251435Z 26006KT 16/12 A2993 RMK A01 T01600121  RH  078%=      5-min Rain = 0
KWT1 251436Z 27005KT 16/13 A2993 RMK A01 T01600125  RH  079%=      5-min Rain = 0
KWT1 251437Z 25007KT 16/13 A2993 RMK A01 T01620126  RH  079%=      5-min Rain = 0
KWT1 251438Z 26008KT 16/13 A2993 RMK A01 T01630126  RH  079%=      5-min Rain = 0
KWT1 251439Z 26007KT 16/12 A2993 RMK A01 T01630123  RH  077%=      5-min Rain = 0
KWT1 251440Z 28007KT 16/12 A2993 RMK A01 T01630123  RH  077%=      5-min Rain = 0
KWT1 251441Z 28007KT 16/12 A2993 RMK A01 T01640123  RH  077%=      5-min Rain = 0
KWT1 251442Z 27005KT 16/13 A2993 RMK A01 T01640125  RH  077%=      5-min Rain = 0
KWT1 251443Z 26005KT 17/13 A2993 RMK A01 T01650126  RH  078%=      5-min Rain = 0
KWT1 251444Z 27003KT 17/13 A2993 RMK A01 T01660128  RH  078%=      5-min Rain = 0
KWT1 251445Z 27004KT 17/13 A2993 RMK A01 T01680130  RH  078%=      5-min Rain = 0
KWT1 251446Z 26004KT 17/13 A2993 RMK A01 T01700128  RH  076%=      5-min Rain = 0
KWT1 251447Z 27005KT 17/12 A2994 RMK A01 T01690124  RH  075%=      5-min Rain = 0
KWT1 251448Z 28005KT 17/12 A2994 RMK A01 T01680124  RH  075%=      5-min Rain = 0
KWT1 251449Z 28006KT 17/13 A2993 RMK A01 T01680125  RH  075%=      5-min Rain = 0
KWT1 251450Z 29007KT 17/13 A2994 RMK A01 T01700126  RH  076%=      5-min Rain = 0
KWT1 251451Z 29006KT 17/12 A2993 RMK A01 T01700122  RH  073%=      5-min Rain = 0
KWT1 251452Z 28005KT 17/12 A2993 RMK A01 T01690124  RH  075%=      5-min Rain = 0
KWT1 251453Z 28005KT 17/13 A2994 RMK A01 T01700128  RH  076%=      5-min Rain = 0
KWT1 251454Z 27005KT 17/13 A2994 RMK A01 T01700125  RH  075%=      5-min Rain = 0
KWT1 251455Z 28005KT 17/13 A2994 RMK A01 T01710129  RH  076%=      5-min Rain = 0
KWT1 251456Z 28006KT 17/13 A2994 RMK A01 T01730131  RH  076%=      5-min Rain = 0
KWT1 251457Z 27006KT 18/13 A2993 RMK A01 T01750127  RH  073%=      5-min Rain = 0
KWT1 251458Z 26005KT 17/13 A2994 RMK A01 T01740130  RH  075%=      5-min Rain = 0
KWT1 251459Z 25005KT 18/13 A2994 RMK A01 T01750129  RH  074%=      5-min Rain = 0
KWT1 251500Z 25005KT 17/13 A2994 RMK A01 T01740129  RH  075%=      5-min Rain = 0
KWT1 251501Z 25004KT 17/13 A2994 RMK A01 T01740129  RH  075%=      5-min Rain = 0
KWT1 251502Z 25004KT 18/13 A2994 RMK A01 T01750129  RH  075%=      5-min Rain = 0
KWT1 251503Z 24005KT 18/13 A2994 RMK A01 T01750128  RH  074%=      5-min Rain = 0
KWT1 251504Z 24003KT 18/13 A2994 RMK A01 T01750130  RH  075%=      5-min Rain = 0
KWT1 251505Z 25005KT 18/13 A2994 RMK A01 T01750130  RH  075%=      5-min Rain = 0
KWT1 251506Z 26003KT 18/13 A2994 RMK A01 T01760131  RH  075%=      5-min Rain = 0
KWT1 251507Z 27003KT 18/13 A2994 RMK A01 T01770132  RH  075%=      5-min Rain = 0
KWT1 251508Z 24004KT 18/14 A2994 RMK A01 T01790135  RH  075%=      5-min Rain = 0
KWT1 251509Z 24004KT 18/13 A2994 RMK A01 T01790129  RH  072%=      5-min Rain = 0
KWT1 251510Z 25005KT 18/13 A2994 RMK A01 T01790130  RH  073%=      5-min Rain = 0
KWT1 251511Z 23004KT 18/13 A2994 RMK A01 T01800130  RH  072%=      5-min Rain = 0
KWT1 251512Z 26004KT 18/13 A2994 RMK A01 T01790128  RH  072%=      5-min Rain = 0
KWT1 251513Z 26003KT 18/13 A2994 RMK A01 T01790130  RH  073%=      5-min Rain = 0
KWT1 251514Z 27003KT 18/13 A2994 RMK A01 T01810134  RH  074%=      5-min Rain = 0
KWT1 251515Z 26005KT 18/14 A2994 RMK A01 T01830135  RH  074%=      5-min Rain = 0
KWT1 251516Z 24005KT 18/13 A2994 RMK A01 T01830131  RH  072%=      5-min Rain = 0
KWT1 251517Z 25003KT 18/13 A2994 RMK A01 T01820131  RH  072%=      5-min Rain = 0
KWT1 251518Z 25004KT 18/14 A2994 RMK A01 T01830136  RH  074%=      5-min Rain = 0
KWT1 251519Z 23006KT 19/13 A2994 RMK A01 T01850133  RH  072%=      5-min Rain = 0
KWT1 251520Z 22006KT 19/13 A2994 RMK A01 T01850132  RH  071%=      5-min Rain = 0
KWT1 251521Z 24003KT 18/13 A2994 RMK A01 T01840132  RH  072%=      5-min Rain = 0
KWT1 251522Z 23003KT 18/13 A2994 RMK A01 T01840134  RH  073%=      5-min Rain = 0
KWT1 251523Z 23005KT 19/14 A2994 RMK A01 T01850135  RH  072%=      5-min Rain = 0
KWT1 251524Z 26005KT 19/14 A2994 RMK A01 T01860135  RH  072%=      5-min Rain = 0
KWT1 251525Z 27005KT 19/13 A2994 RMK A01 T01870132  RH  070%=      5-min Rain = 0
KWT1 251526Z 26005KT 19/13 A2994 RMK A01 T01870132  RH  071%=      5-min Rain = 0
KWT1 251527Z 26006KT 19/13 A2994 RMK A01 T01870132  RH  070%=      5-min Rain = 0
KWT1 251528Z 26003KT 19/13 A2994 RMK A01 T01860129  RH  070%=      5-min Rain = 0
KWT1 251529Z 24004KT 19/13 A2994 RMK A01 T01850129  RH  070%=      5-min Rain = 0
KWT1 251530Z 25006KT 18/13 A2994 RMK A01 T01840129  RH  070%=      5-min Rain = 0
KWT1 251531Z 26006KT 19/13 A2994 RMK A01 T01860128  RH  069%=      5-min Rain = 0
KWT1 251532Z 26005KT 19/13 A2994 RMK A01 T01860126  RH  068%=      5-min Rain = 0
KWT1 251533Z 28005KT 19/13 A2994 RMK A01 T01870131  RH  070%=      5-min Rain = 0
KWT1 251534Z 28004KT 19/13 A2994 RMK A01 T01880129  RH  068%=      5-min Rain = 0
KWT1 251535Z 27005KT 19/14 A2994 RMK A01 T01900136  RH  071%=      5-min Rain = 0
KWT1 251536Z 27004KT 19/14 A2995 RMK A01 T01930136  RH  070%=      5-min Rain = 0
KWT1 251537Z 25007KT 19/14 A2995 RMK A01 T01930135  RH  069%=      5-min Rain = 0
KWT1 251538Z 23005KT 19/13 A2995 RMK A01 T01930134  RH  069%=      5-min Rain = 0
KWT1 251539Z 23004KT 19/13 A2995 RMK A01 T01920133  RH  069%=      5-min Rain = 0
KWT1 251540Z 23005KT 19/14 A2995 RMK A01 T01920139  RH  071%=      5-min Rain = 0
KWT1 251541Z 24004KT 19/14 A2994 RMK A01 T01930139  RH  071%=      5-min Rain = 0
KWT1 251542Z 23005KT 19/14 A2994 RMK A01 T01930137  RH  070%=      5-min Rain = 0
KWT1 251543Z 24005KT 19/13 A2994 RMK A01 T01940131  RH  067%=      5-min Rain = 0
KWT1 251544Z 25005KT 19/13 A2994 RMK A01 T01930130  RH  067%=      5-min Rain = 0
KWT1 251545Z 24004KT 19/14 A2994 RMK A01 T01940136  RH  069%=      5-min Rain = 0
KWT1 251546Z 25004KT 20/14 A2995 RMK A01 T01960136  RH  068%=      5-min Rain = 0
KWT1 251547Z 25004KT 20/14 A2995 RMK A01 T01970136  RH  068%=      5-min Rain = 0
KWT1 251548Z 23005KT 20/14 A2995 RMK A01 T01980140  RH  069%=      5-min Rain = 0
KWT1 251549Z 23005KT 20/14 A2995 RMK A01 T01990139  RH  068%=      5-min Rain = 0
KWT1 251550Z 26005KT 20/14 A2995 RMK A01 T01980140  RH  069%=      5-min Rain = 0
KWT1 251551Z 26005KT 20/13 A2995 RMK A01 T01990134  RH  066%=      5-min Rain = 0
KWT1 251552Z 24004KT 20/13 A2995 RMK A01 T01990133  RH  066%=      5-min Rain = 0.01
KWT1 251553Z 26003KT 20/14 A2995 RMK A01 T01980136  RH  067%=      5-min Rain = 0
KWT1 251554Z 27004KT 20/14 A2995 RMK A01 T01980136  RH  067%=      5-min Rain = 0
KWT1 251555Z 25006KT 20/14 A2995 RMK A01 T01980140  RH  069%=      5-min Rain = 0
KWT1 251556Z 26006KT 20/14 A2995 RMK A01 T02000138  RH  067%=      5-min Rain = 0
KWT1 251557Z 28005KT 20/14 A2995 RMK A01 T02000135  RH  066%=      5-min Rain = 0
KWT1 251558Z 28005KT 20/14 A2995 RMK A01 T02000138  RH  067%=      5-min Rain = 0
KWT1 251559Z 26005KT 20/14 A2995 RMK A01 T02010138  RH  067%=      5-min Rain = 0
KWT1 251600Z 25008KT 20/14 A2995 RMK A01 T02010138  RH  067%=      5-min Rain = 0
KWT1 251601Z 26007KT 20/14 A2995 RMK A01 T02020139  RH  067%=      5-min Rain = 0
KWT1 251602Z 26006KT 20/14 A2995 RMK A01 T02020136  RH  066%=      5-min Rain = 0
KWT1 251603Z 27005KT 20/14 A2995 RMK A01 T02010140  RH  068%=      5-min Rain = 0
KWT1 251604Z 27004KT 20/14 A2995 RMK A01 T02010142  RH  069%=      5-min Rain = 0
KWT1 251605Z 22003KT 20/15 A2995 RMK A01 T02030145  RH  069%=      5-min Rain = 0
KWT1 251606Z 24004KT 20/14 A2995 RMK A01 T02040143  RH  068%=      5-min Rain = 0
KWT1 251607Z 26006KT 20/14 A2995 RMK A01 T02040140  RH  067%=      5-min Rain = 0
KWT1 251608Z 28005KT 20/14 A2995 RMK A01 T02030138  RH  066%=      5-min Rain = 0
KWT1 251609Z 26003KT 20/14 A2995 RMK A01 T02030139  RH  067%=      5-min Rain = 0
KWT1 251610Z 23005KT 20/14 A2995 RMK A01 T02030140  RH  067%=      5-min Rain = 0
KWT1 251611Z 22004KT 20/14 A2995 RMK A01 T02030141  RH  067%=      5-min Rain = 0
KWT1 251612Z 24003KT 20/14 A2995 RMK A01 T02030140  RH  067%=      5-min Rain = 0
KWT1 251613Z 22002KT 20/14 A2995 RMK A01 T02030140  RH  067%=      5-min Rain = 0
KWT1 251614Z 23004KT 20/14 A2995 RMK A01 T02040143  RH  068%=      5-min Rain = 0
KWT1 251615Z 22003KT 21/14 A2995 RMK A01 T02050143  RH  068%=      5-min Rain = 0
KWT1 251616Z 22001KT 21/14 A2996 RMK A01 T02050142  RH  067%=      5-min Rain = 0
KWT1 251617Z 24002KT 21/15 A2996 RMK A01 T02060147  RH  069%=      5-min Rain = 0
KWT1 251618Z 22003KT 21/15 A2996 RMK A01 T02080149  RH  069%=      5-min Rain = 0
KWT1 251619Z 20004KT 21/14 A2996 RMK A01 T02090143  RH  066%=      5-min Rain = 0
KWT1 251620Z 23005KT 21/15 A2996 RMK A01 T02080145  RH  067%=      5-min Rain = 0
KWT1 251621Z 25004KT 21/14 A2996 RMK A01 T02090142  RH  066%=      5-min Rain = 0
KWT1 251622Z 26005KT 21/14 A2996 RMK A01 T02090142  RH  065%=      5-min Rain = 0
KWT1 251623Z 26002KT 21/14 A2996 RMK A01 T02080139  RH  065%=      5-min Rain = 0
KWT1 251624Z 33001KT 21/14 A2996 RMK A01 T02070136  RH  064%=      5-min Rain = 0
KWT1 251625Z 31001KT 21/14 A2996 RMK A01 T02070140  RH  066%=      5-min Rain = 0
KWT1 251626Z 26002KT 21/14 A2996 RMK A01 T02080144  RH  067%=      5-min Rain = 0
KWT1 251627Z 25003KT 21/15 A2996 RMK A01 T02100146  RH  067%=      5-min Rain = 0
KWT1 251628Z 23004KT 21/15 A2996 RMK A01 T02120150  RH  068%=      5-min Rain = 0
KWT1 251629Z 24003KT 21/14 A2996 RMK A01 T02140144  RH  064%=      5-min Rain = 0
KWT1 251630Z 27005KT 21/14 A2996 RMK A01 T02140143  RH  064%=      5-min Rain = 0
KWT1 251631Z 26004KT 21/14 A2996 RMK A01 T02130141  RH  064%=      5-min Rain = 0
KWT1 251632Z 23006KT 21/15 A2996 RMK A01 T02130145  RH  065%=      5-min Rain = 0
KWT1 251633Z 24005KT 21/14 A2996 RMK A01 T02140143  RH  064%=      5-min Rain = 0
KWT1 251634Z 25004KT 21/14 A2996 RMK A01 T02130141  RH  063%=      5-min Rain = 0
KWT1 251635Z 24002KT 21/14 A2996 RMK A01 T02110137  RH  063%=      5-min Rain = 0
KWT1 251636Z 26003KT 21/14 A2996 RMK A01 T02100139  RH  064%=      5-min Rain = 0
KWT1 251637Z 26002KT 21/14 A2996 RMK A01 T02100142  RH  065%=      5-min Rain = 0
KWT1 251638Z 25002KT 21/14 A2996 RMK A01 T02110144  RH  065%=      5-min Rain = 0
KWT1 251639Z 25004KT 21/15 A2996 RMK A01 T02130148  RH  066%=      5-min Rain = 0
KWT1 251640Z 28003KT 21/14 A2996 RMK A01 T02140144  RH  064%=      5-min Rain = 0
KWT1 251641Z 29002KT 21/14 A2996 RMK A01 T02140142  RH  063%=      5-min Rain = 0
KWT1 251642Z 30002KT 22/15 A2996 RMK A01 T02150146  RH  065%=      5-min Rain = 0
KWT1 251643Z 30002KT 22/15 A2996 RMK A01 T02150145  RH  064%=      5-min Rain = 0
KWT1 251644Z 30003KT 22/15 A2996 RMK A01 T02160146  RH  064%=      5-min Rain = 0
KWT1 251645Z 30002KT 22/15 A2996 RMK A01 T02160148  RH  065%=      5-min Rain = 0
KWT1 251646Z 29004KT 22/15 A2996 RMK A01 T02180147  RH  064%=      5-min Rain = 0
KWT1 251647Z 32003KT 22/14 A2996 RMK A01 T02180142  RH  062%=      5-min Rain = 0
KWT1 251648Z 33003KT 22/14 A2996 RMK A01 T02170141  RH  062%=      5-min Rain = 0
KWT1 251649Z 33002KT 22/14 A2996 RMK A01 T02160140  RH  062%=      5-min Rain = 0
KWT1 251650Z 32002KT 22/14 A2996 RMK A01 T02160142  RH  063%=      5-min Rain = 0
KWT1 251651Z 32001KT 22/15 A2996 RMK A01 T02170147  RH  064%=      5-min Rain = 0
KWT1 251652Z 30005KT 22/15 A2996 RMK A01 T02190149  RH  065%=      5-min Rain = 0
KWT1 251653Z 29005KT 22/14 A2996 RMK A01 T02200141  RH  061%=      5-min Rain = 0
KWT1 251654Z 31004KT 22/14 A2996 RMK A01 T02200144  RH  062%=      5-min Rain = 0
KWT1 251655Z 27002KT 22/15 A2996 RMK A01 T02200150  RH  064%=      5-min Rain = 0
KWT1 251656Z 29003KT 22/15 A2996 RMK A01 T02210146  RH  062%=      5-min Rain = 0
KWT1 251657Z 25002KT 22/14 A2996 RMK A01 T02220142  RH  061%=      5-min Rain = 0
KWT1 251658Z 26003KT 22/15 A2996 RMK A01 T02220147  RH  063%=      5-min Rain = 0
KWT1 251659Z 25003KT 22/15 A2996 RMK A01 T02230152  RH  064%=      5-min Rain = 0
KWT1 251700Z 25004KT 22/14 A2996 RMK A01 T02240144  RH  060%=      5-min Rain = 0
KWT1 251701Z 24003KT 22/15 A2996 RMK A01 T02230146  RH  062%=      5-min Rain = 0
KWT1 251702Z 24002KT 22/15 A2996 RMK A01 T02230154  RH  065%=      5-min Rain = 0
KWT1 251703Z 32005KT 23/16 A2996 RMK A01 T02260155  RH  064%=      5-min Rain = 0
KWT1 251704Z 31004KT 23/15 A2996 RMK A01 T02270145  RH  060%=      5-min Rain = 0
KWT1 251705Z 34002KT 23/14 A2996 RMK A01 T02260144  RH  060%=      5-min Rain = 0
KWT1 251706Z 34005KT 23/14 A2996 RMK A01 T02250144  RH  060%=      5-min Rain = 0
KWT1 251707Z 35003KT 23/14 A2996 RMK A01 T02250141  RH  059%=      5-min Rain = 0
KWT1 251708Z 35004KT 23/15 A2996 RMK A01 T02250149  RH  062%=      5-min Rain = 0
KWT1 251709Z 01004KT 23/15 A2996 RMK A01 T02280149  RH  061%=      5-min Rain = 0
KWT1 251710Z 00004KT 23/15 A2996 RMK A01 T02280146  RH  060%=      5-min Rain = 0
KWT1 251711Z 36003KT 23/15 A2996 RMK A01 T02280148  RH  061%=      5-min Rain = 0
KWT1 251712Z 35001KT 23/15 A2996 RMK A01 T02290152  RH  062%=      5-min Rain = 0
KWT1 251713Z 27004KT 23/15 A2996 RMK A01 T02310154  RH  062%=      5-min Rain = 0
KWT1 251714Z 27004KT 23/14 A2996 RMK A01 T02300143  RH  058%=      5-min Rain = 0
KWT1 251715Z 27005KT 23/15 A2996 RMK A01 T02290147  RH  060%=      5-min Rain = 0
KWT1 251716Z 25004KT 23/15 A2996 RMK A01 T02290146  RH  060%=      5-min Rain = 0
KWT1 251717Z 25003KT 23/15 A2996 RMK A01 T02290150  RH  061%=      5-min Rain = 0
KWT1 251718Z 28002KT 23/15 A2996 RMK A01 T02300150  RH  061%=      5-min Rain = 0
KWT1 251719Z 28003KT 23/15 A2996 RMK A01 T02320149  RH  059%=      5-min Rain = 0
KWT1 251720Z 28003KT 23/15 A2996 RMK A01 T02340148  RH  058%=      5-min Rain = 0
KWT1 251721Z 26003KT 24/15 A2996 RMK A01 T02350150  RH  059%=      5-min Rain = 0
KWT1 251722Z 26002KT 24/15 A2996 RMK A01 T02360149  RH  058%=      5-min Rain = 0
KWT1 251723Z 27003KT 24/15 A2996 RMK A01 T02370150  RH  058%=      5-min Rain = 0
KWT1 251724Z 32004KT 24/15 A2996 RMK A01 T02370146  RH  056%=      5-min Rain = 0
KWT1 251725Z 29003KT 24/15 A2996 RMK A01 T02370151  RH  058%=      5-min Rain = 0
KWT1 251726Z 28005KT 24/15 A2996 RMK A01 T02400152  RH  058%=      5-min Rain = 0
KWT1 251727Z 27006KT 24/14 A2996 RMK A01 T02400141  RH  054%=      5-min Rain = 0
KWT1 251728Z 31005KT 24/14 A2996 RMK A01 T02370144  RH  056%=      5-min Rain = 0
KWT1 251729Z 30006KT 24/15 A2996 RMK A01 T02370147  RH  057%=      5-min Rain = 0
KWT1 251730Z 29006KT 24/14 A2996 RMK A01 T02370143  RH  055%=      5-min Rain = 0
KWT1 251731Z 33005KT 24/14 A2996 RMK A01 T02360141  RH  055%=      5-min Rain = 0
KWT1 251732Z 33002KT 24/14 A2996 RMK A01 T02350143  RH  056%=      5-min Rain = 0
KWT1 251733Z 26003KT 24/14 A2996 RMK A01 T02360144  RH  056%=      5-min Rain = 0
KWT1 251734Z 27004KT 24/15 A2996 RMK A01 T02380145  RH  056%=      5-min Rain = 0
KWT1 251735Z 27002KT 24/14 A2996 RMK A01 T02370137  RH  053%=      5-min Rain = 0
KWT1 251736Z 29006KT 24/14 A2996 RMK A01 T02370139  RH  054%=      5-min Rain = 0
KWT1 251737Z 29006KT 24/14 A2996 RMK A01 T02370138  RH  054%=      5-min Rain = 0
KWT1 251738Z 28005KT 24/14 A2996 RMK A01 T02380143  RH  055%=      5-min Rain = 0
KWT1 251739Z 26003KT 24/15 A2996 RMK A01 T02390147  RH  056%=      5-min Rain = 0
KWT1 251740Z 26005KT 24/15 A2996 RMK A01 T02400147  RH  056%=      5-min Rain = 0
KWT1 251741Z 27006KT 24/15 A2996 RMK A01 T02430154  RH  058%=      5-min Rain = 0
KWT1 251742Z 27006KT 24/14 A2996 RMK A01 T02440140  RH  052%=      5-min Rain = 0
KWT1 251743Z 28006KT 24/14 A2996 RMK A01 T02410141  RH  053%=      5-min Rain = 0
KWT1 251744Z 28006KT 24/14 A2996 RMK A01 T02400140  RH  053%=      5-min Rain = 0
KWT1 251745Z 28003KT 24/14 A2996 RMK A01 T02400137  RH  052%=      5-min Rain = 0
KWT1 251746Z 32005KT 24/14 A2996 RMK A01 T02400144  RH  055%=      5-min Rain = 0
KWT1 251747Z 29003KT 24/14 A2996 RMK A01 T02410144  RH  055%=      5-min Rain = 0
KWT1 251748Z 27004KT 24/15 A2996 RMK A01 T02420147  RH  055%=      5-min Rain = 0
KWT1 251749Z 26003KT 24/14 A2996 RMK A01 T02430137  RH  051%=      5-min Rain = 0
KWT1 251750Z 23004KT 24/13 A2996 RMK A01 T02420133  RH  051%=      5-min Rain = 0
KWT1 251751Z 25001KT 24/14 A2996 RMK A01 T02410142  RH  054%=      5-min Rain = 0
KWT1 251752Z 27002G7KT 24/14 A2996 RMK A01 T02420144  RH  054%=      5-min Rain = 0
KWT1 251753Z 28004KT 24/14 A2996 RMK A01 T02440141  RH  053%=      5-min Rain = 0
KWT1 251754Z 29005KT 25/14 A2996 RMK A01 T02460141  RH  052%=      5-min Rain = 0
KWT1 251755Z 30005KT 25/14 A2996 RMK A01 T02470138  RH  051%=      5-min Rain = 0
KWT1 251756Z 30003KT 25/13 A2996 RMK A01 T02460134  RH  050%=      5-min Rain = 0
KWT1 251757Z 28003KT 25/14 A2996 RMK A01 T02450138  RH  051%=      5-min Rain = 0
KWT1 251758Z 26006KT 25/14 A2996 RMK A01 T02460143  RH  052%=      5-min Rain = 0
KWT1 251759Z 27005KT 25/14 A2996 RMK A01 T02470141  RH  052%=      5-min Rain = 0
KWT1 251800Z 25004KT 25/14 A2996 RMK A01 T02460135  RH  050%=      5-min Rain = 0
KWT1 251801Z 30003KT 25/14 A2996 RMK A01 T02460143  RH  053%=      5-min Rain = 0
KWT1 251802Z 32004KT 25/14 A2996 RMK A01 T02480141  RH  051%=      5-min Rain = 0
KWT1 251803Z 30003KT 25/14 A2996 RMK A01 T02490139  RH  050%=      5-min Rain = 0
KWT1 251804Z 29004KT 25/15 A2996 RMK A01 T02500150  RH  054%=      5-min Rain = 0
KWT1 251805Z 25004KT 25/15 A2996 RMK A01 T02510146  RH  052%=      5-min Rain = 0
KWT1 251806Z 29002KT 25/15 A2996 RMK A01 T02520145  RH  051%=      5-min Rain = 0
KWT1 251807Z 31004KT 25/15 A2996 RMK A01 T02530149  RH  053%=      5-min Rain = 0
KWT1 251808Z 31002KT 25/14 A2996 RMK A01 T02520140  RH  050%=      5-min Rain = 0
KWT1 251809Z 27003KT 25/15 A2996 RMK A01 T02510149  RH  053%=      5-min Rain = 0
KWT1 251810Z 24005KT 25/14 A2995 RMK A01 T02510139  RH  050%=      5-min Rain = 0
KWT1 251811Z 24007KT 25/14 A2995 RMK A01 T02510141  RH  051%=      5-min Rain = 0
KWT1 251812Z 26008KT 25/14 A2995 RMK A01 T02520140  RH  050%=      5-min Rain = 0
KWT1 251813Z 26007KT 25/14 A2995 RMK A01 T02510140  RH  050%=      5-min Rain = 0
KWT1 251814Z 28005KT 25/14 A2995 RMK A01 T02510143  RH  051%=      5-min Rain = 0
KWT1 251815Z 27004KT 25/15 A2995 RMK A01 T02520149  RH  053%=      5-min Rain = 0
KWT1 251816Z 29006KT 25/14 A2995 RMK A01 T02540144  RH  051%=      5-min Rain = 0
KWT1 251817Z 30006KT 25/14 A2995 RMK A01 T02540138  RH  049%=      5-min Rain = 0
KWT1 251818Z 28005KT 25/14 A2995 RMK A01 T02510138  RH  049%=      5-min Rain = 0
KWT1 251819Z 27004KT 25/13 A2995 RMK A01 T02500131  RH  047%=      5-min Rain = 0
KWT1 251820Z 30003KT 25/13 A2995 RMK A01 T02490132  RH  048%=      5-min Rain = 0
KWT1 251821Z 27002KT 25/14 A2995 RMK A01 T02500141  RH  051%=      5-min Rain = 0
KWT1 251822Z 25001KT 25/14 A2995 RMK A01 T02520143  RH  051%=      5-min Rain = 0
KWT1 251823Z 26002KT 25/14 A2995 RMK A01 T02530140  RH  049%=      5-min Rain = 0
KWT1 251824Z 28003KT 26/15 A2995 RMK A01 T02550146  RH  051%=      5-min Rain = 0
KWT1 251825Z 25007KT 26/14 A2995 RMK A01 T02560142  RH  049%=      5-min Rain = 0
KWT1 251826Z 24005KT 26/13 A2995 RMK A01 T02550133  RH  047%=      5-min Rain = 0
KWT1 251827Z 25005KT 25/14 A2995 RMK A01 T02530137  RH  048%=      5-min Rain = 0
KWT1 251828Z 25005KT 25/14 A2995 RMK A01 T02530136  RH  048%=      5-min Rain = 0
KWT1 251829Z 25003KT 25/14 A2995 RMK A01 T02530135  RH  048%=      5-min Rain = 0
KWT1 251830Z 26002KT 25/14 A2995 RMK A01 T02530136  RH  048%=      5-min Rain = 0
KWT1 251831Z 28001KT 25/13 A2995 RMK A01 T02530132  RH  047%=      5-min Rain = 0
KWT1 251832Z 28001KT 25/15 A2996 RMK A01 T02540147  RH  052%=      5-min Rain = 0
KWT1 251833Z 22004KT 26/15 A2996 RMK A01 T02570147  RH  051%=      5-min Rain = 0
KWT1 251834Z 25005KT 26/14 A2996 RMK A01 T02590144  RH  049%=      5-min Rain = 0
KWT1 251835Z 23005KT 26/14 A2996 RMK A01 T02580136  RH  047%=      5-min Rain = 0
KWT1 251836Z 23006KT 26/13 A2996 RMK A01 T02560134  RH  047%=      5-min Rain = 0
KWT1 251837Z 24007KT 26/14 A2996 RMK A01 T02550142  RH  050%=      5-min Rain = 0
KWT1 251838Z 24005KT 26/14 A2996 RMK A01 T02570144  RH  049%=      5-min Rain = 0
KWT1 251839Z 25007KT 26/14 A2996 RMK A01 T02590141  RH  048%=      5-min Rain = 0
KWT1 251840Z 25007KT 26/14 A2996 RMK A01 T02580138  RH  047%=      5-min Rain = 0
KWT1 251841Z 25009KT 26/14 A2996 RMK A01 T02580140  RH  048%=      5-min Rain = 0
KWT1 251842Z 25009KT 26/14 A2996 RMK A01 T02580138  RH  047%=      5-min Rain = 0
KWT1 251843Z 25009KT 26/14 A2996 RMK A01 T02590142  RH  048%=      5-min Rain = 0
KWT1 251844Z 27006KT 26/14 A2996 RMK A01 T02610142  RH  048%=      5-min Rain = 0
KWT1 251845Z 26010KT 26/14 A2996 RMK A01 T02610142  RH  048%=      5-min Rain = 0
KWT1 251846Z 29007KT 26/14 A2996 RMK A01 T02600135  RH  046%=      5-min Rain = 0
KWT1 251847Z 26004KT 26/14 A2996 RMK A01 T02570136  RH  047%=      5-min Rain = 0
KWT1 251848Z 25003KT 26/13 A2996 RMK A01 T02570132  RH  046%=      5-min Rain = 0
KWT1 251849Z 24005KT 26/14 A2996 RMK A01 T02570136  RH  047%=      5-min Rain = 0
KWT1 251850Z 25003KT 26/14 A2996 RMK A01 T02580135  RH  046%=      5-min Rain = 0
KWT1 251851Z 23006KT 26/14 A2996 RMK A01 T02580140  RH  048%=      5-min Rain = 0
KWT1 251852Z 20005KT 26/14 A2996 RMK A01 T02590138  RH  047%=      5-min Rain = 0
KWT1 251853Z 21004KT 26/14 A2996 RMK A01 T02600138  RH  047%=      5-min Rain = 0
KWT1 251854Z 22004KT 26/14 A2996 RMK A01 T02580135  RH  046%=      5-min Rain = 0
KWT1 251855Z 21006KT 26/14 A2996 RMK A01 T02570141  RH  048%=      5-min Rain = 0
KWT1 251856Z 20007KT 26/14 A2996 RMK A01 T02590141  RH  048%=      5-min Rain = 0
KWT1 251857Z 21005KT 26/14 A2996 RMK A01 T02590138  RH  047%=      5-min Rain = 0
KWT1 251858Z 25004KT 26/15 A2996 RMK A01 T02610146  RH  049%=      5-min Rain = 0
KWT1 251859Z 26006KT 26/14 A2996 RMK A01 T02630140  RH  047%=      5-min Rain = 0
KWT1 251900Z 27005KT 26/14 A2996 RMK A01 T02640137  RH  045%=      5-min Rain = 0
KWT1 251901Z 29003KT 27/13 A2996 RMK A01 T02650130  RH  043%=      5-min Rain = 0
KWT1 251902Z 28003KT 26/14 A2996 RMK A01 T02640138  RH  046%=      5-min Rain = 0
KWT1 251903Z 30005KT 27/14 A2996 RMK A01 T02660137  RH  045%=      5-min Rain = 0
KWT1 251904Z 30005KT 27/15 A2996 RMK A01 T02660147  RH  048%=      5-min Rain = 0
KWT1 251905Z 32006KT 27/14 A2996 RMK A01 T02690139  RH  045%=      5-min Rain = 0
KWT1 251906Z 34005KT 27/13 A2996 RMK A01 T02680130  RH  043%=      5-min Rain = 0
KWT1 251907Z 31004KT 27/13 A2996 RMK A01 T02660126  RH  042%=      5-min Rain = 0
KWT1 251908Z 25005KT 27/14 A2996 RMK A01 T02660141  RH  046%=      5-min Rain = 0
KWT1 251909Z 23006KT 27/14 A2996 RMK A01 T02690137  RH  044%=      5-min Rain = 0
KWT1 251910Z 23006KT 27/14 A2996 RMK A01 T02710140  RH  045%=      5-min Rain = 0
KWT1 251911Z 24007KT 27/14 A2996 RMK A01 T02720143  RH  045%=      5-min Rain = 0
KWT1 251912Z 23008KT 27/14 A2996 RMK A01 T02740143  RH  045%=      5-min Rain = 0
KWT1 251913Z 24008KT 28/14 A2996 RMK A01 T02750140  RH  044%=      5-min Rain = 0
KWT1 251914Z 27006KT 28/14 A2996 RMK A01 T02750141  RH  044%=      5-min Rain = 0
KWT1 251915Z 32006KT 28/13 A2996 RMK A01 T02750130  RH  041%=      5-min Rain = 0
KWT1 251916Z 30007KT 27/14 A2996 RMK A01 T02740135  RH  042%=      5-min Rain = 0
KWT1 251917Z 31007KT 28/13 A2996 RMK A01 T02760130  RH  041%=      5-min Rain = 0
KWT1 251918Z 32005KT 28/13 A2996 RMK A01 T02750125  RH  039%=      5-min Rain = 0
KWT1 251919Z 26003KT 27/13 A2996 RMK A01 T02740133  RH  042%=      5-min Rain = 0
KWT1 251920Z 24006KT 28/12 A2996 RMK A01 T02750124  RH  039%=      5-min Rain = 0
KWT1 251921Z 29008KT 27/13 A2996 RMK A01 T02730125  RH  040%=      5-min Rain = 0
KWT1 251922Z 31008KT 27/12 A2996 RMK A01 T02730124  RH  040%=      5-min Rain = 0
KWT1 251923Z 30005KT 27/13 A2996 RMK A01 T02720129  RH  041%=      5-min Rain = 0
KWT1 251924Z 31004KT 27/12 A2996 RMK A01 T02730124  RH  040%=      5-min Rain = 0
KWT1 251925Z 31003KT 27/12 A2996 RMK A01 T02720119  RH  039%=      5-min Rain = 0
KWT1 251926Z 29002KT 27/12 A2996 RMK A01 T02710124  RH  040%=      5-min Rain = 0
KWT1 251927Z 25006KT 27/13 A2996 RMK A01 T02720129  RH  041%=      5-min Rain = 0
KWT1 251928Z 25007KT 27/13 A2996 RMK A01 T02740128  RH  040%=      5-min Rain = 0
KWT1 251929Z 25007KT 27/12 A2996 RMK A01 T02740118  RH  038%=      5-min Rain = 0
KWT1 251930Z 25005KT 27/12 A2996 RMK A01 T02720121  RH  039%=      5-min Rain = 0
KWT1 251931Z 27005KT 27/12 A2996 RMK A01 T02720123  RH  040%=      5-min Rain = 0
KWT1 251932Z 29007KT 27/12 A2996 RMK A01 T02730123  RH  039%=      5-min Rain = 0
KWT1 251933Z 28008KT 28/11 A2996 RMK A01 T02750111  RH  036%=      5-min Rain = 0
KWT1 251934Z 27010KT 28/12 A2996 RMK A01 T02760119  RH  038%=      5-min Rain = 0
KWT1 251935Z 28008KT 28/13 A2997 RMK A01 T02770126  RH  039%=      5-min Rain = 0
KWT1 251936Z 30009KT 28/13 A2997 RMK A01 T02800132  RH  040%=      5-min Rain = 0
KWT1 251937Z 30011KT 28/12 A2997 RMK A01 T02810117  RH  036%=      5-min Rain = 0
KWT1 251938Z 29010KT 28/12 A2997 RMK A01 T02790115  RH  036%=      5-min Rain = 0
KWT1 251939Z 28009KT 28/11 A2997 RMK A01 T02770109  RH  035%=      5-min Rain = 0
KWT1 251940Z 28006KT 28/11 A2997 RMK A01 T02750108  RH  035%=      5-min Rain = 0
KWT1 251941Z 29007KT 28/12 A2997 RMK A01 T02750117  RH  037%=      5-min Rain = 0
KWT1 251942Z 31005KT 28/11 A2997 RMK A01 T02770111  RH  036%=      5-min Rain = 0
KWT1 251943Z 30006KT 28/11 A2997 RMK A01 T02770106  RH  034%=      5-min Rain = 0
KWT1 251944Z 31004KT 28/09 A2997 RMK A01 T02750094  RH  032%=      5-min Rain = 0
KWT1 251945Z 30006KT 27/11 A2997 RMK A01 T02740105  RH  035%=      5-min Rain = 0
KWT1 251946Z 30008KT 28/12 A2997 RMK A01 T02750117  RH  037%=      5-min Rain = 0
KWT1 251947Z 32009KT 28/12 A2996 RMK A01 T02790122  RH  038%=      5-min Rain = 0
KWT1 251948Z 34008KT 28/12 A2996 RMK A01 T02810118  RH  036%=      5-min Rain = 0
KWT1 251949Z 35009KT 28/11 A2996 RMK A01 T02810110  RH  034%=      5-min Rain = 0
KWT1 251950Z 35007KT 28/11 A2997 RMK A01 T02800113  RH  035%=      5-min Rain = 0
KWT1 251951Z 32008KT 28/12 A2997 RMK A01 T02800119  RH  037%=      5-min Rain = 0
KWT1 251952Z 32011KT 28/11 A2997 RMK A01 T02800113  RH  035%=      5-min Rain = 0
KWT1 251953Z 34008KT 28/11 A2997 RMK A01 T02800107  RH  034%=      5-min Rain = 0
KWT1 251954Z 34007KT 28/11 A2997 RMK A01 T02780111  RH  035%=      5-min Rain = 0
KWT1 251955Z 31006KT 28/12 A2997 RMK A01 T02780116  RH  036%=      5-min Rain = 0
KWT1 251956Z 29004KT 28/10 A2997 RMK A01 T02790101  RH  033%=      5-min Rain = 0
KWT1 251957Z 27003KT 28/10 A2997 RMK A01 T02780102  RH  033%=      5-min Rain = 0
KWT1 251958Z 26001KT 28/10 A2997 RMK A01 T02780103  RH  034%=      5-min Rain = 0
KWT1 251959Z 31002KT 28/10 A2997 RMK A01 T02790103  RH  033%=      5-min Rain = 0
KWT1 252000Z 32007KT 28/11 A2997 RMK A01 T02800114  RH  036%=      5-min Rain = 0
KWT1 252001Z 30007KT 28/11 A2997 RMK A01 T02810107  RH  034%=      5-min Rain = 0
KWT1 252002Z 29005KT 28/11 A2997 RMK A01 T02790108  RH  035%=      5-min Rain = 0
KWT1 252003Z 29007G12KT 28/10 A2997 RMK A01 T02790104  RH  034%=      5-min Rain = 0
KWT1 252004Z 32011KT 28/12 A2996 RMK A01 T02790117  RH  037%=      5-min Rain = 0
KWT1 252005Z 34011KT 28/11 A2997 RMK A01 T02810114  RH  035%=      5-min Rain = 0
KWT1 252006Z 33010KT 28/11 A2997 RMK A01 T02810110  RH  034%=      5-min Rain = 0
KWT1 252007Z 34008KT 28/11 A2997 RMK A01 T02800109  RH  035%=      5-min Rain = 0
KWT1 252008Z 35007KT 28/10 A2997 RMK A01 T02780098  RH  032%=      5-min Rain = 0
KWT1 252009Z 35006KT 28/11 A2997 RMK A01 T02770108  RH  035%=      5-min Rain = 0
KWT1 252010Z 32006KT 28/11 A2997 RMK A01 T02790114  RH  036%=      5-min Rain = 0
KWT1 252011Z 33008KT 28/11 A2997 RMK A01 T02790107  RH  034%=      5-min Rain = 0
KWT1 252012Z 33008KT 28/10 A2997 RMK A01 T02800103  RH  033%=      5-min Rain = 0
KWT1 252013Z 32008KT 28/11 A2997 RMK A01 T02790112  RH  035%=      5-min Rain = 0
KWT1 252014Z 32008KT 28/12 A2997 RMK A01 T02790117  RH  037%=      5-min Rain = 0
KWT1 252015Z 35009KT 28/12 A2997 RMK A01 T02810123  RH  038%=      5-min Rain = 0
KWT1 252016Z 35009KT 28/11 A2997 RMK A01 T02820114  RH  035%=      5-min Rain = 0
KWT1 252017Z 35008KT 28/11 A2997 RMK A01 T02820105  RH  033%=      5-min Rain = 0
KWT1 252018Z 35007KT 28/11 A2997 RMK A01 T02810114  RH  036%=      5-min Rain = 0
KWT1 252019Z 35006KT 28/12 A2997 RMK A01 T02820115  RH  035%=      5-min Rain = 0
KWT1 252020Z 36007KT 28/11 A2997 RMK A01 T02820106  RH  034%=      5-min Rain = 0
KWT1 252021Z 35006KT 28/11 A2997 RMK A01 T02800113  RH  035%=      5-min Rain = 0
KWT1 252022Z 35006KT 28/13 A2997 RMK A01 T02820127  RH  038%=      5-min Rain = 0
KWT1 252023Z 32009KT 28/12 A2997 RMK A01 T02840115  RH  035%=      5-min Rain = 0
KWT1 252024Z 34006KT 28/11 A2997 RMK A01 T02800107  RH  034%=      5-min Rain = 0
KWT1 252025Z 35007KT 28/12 A2997 RMK A01 T02790117  RH  037%=      5-min Rain = 0
KWT1 252026Z 36006KT 28/12 A2997 RMK A01 T02800121  RH  037%=      5-min Rain = 0
KWT1 252027Z 01005KT 28/12 A2997 RMK A01 T02800123  RH  038%=      5-min Rain = 0
KWT1 252028Z 00006KT 28/12 A2997 RMK A01 T02810120  RH  037%=      5-min Rain = 0
KWT1 252029Z 02007KT 28/11 A2997 RMK A01 T02800111  RH  035%=      5-min Rain = 0
KWT1 252030Z 04006KT 28/11 A2997 RMK A01 T02780111  RH  035%=      5-min Rain = 0
KWT1 252031Z 06005KT 28/13 A2997 RMK A01 T02780125  RH  039%=      5-min Rain = 0
KWT1 252032Z 01005KT 28/13 A2997 RMK A01 T02800133  RH  040%=      5-min Rain = 0
KWT1 252033Z 35008KT 28/13 A2997 RMK A01 T02830128  RH  038%=      5-min Rain = 0
KWT1 252034Z 33007KT 28/12 A2997 RMK A01 T02830117  RH  036%=      5-min Rain = 0
KWT1 252035Z 34005KT 28/11 A2997 RMK A01 T02800114  RH  036%=      5-min Rain = 0
KWT1 252036Z 33007KT 28/12 A2997 RMK A01 T02790118  RH  037%=      5-min Rain = 0
KWT1 252037Z 35005KT 28/12 A2997 RMK A01 T02790120  RH  037%=      5-min Rain = 0
KWT1 252038Z 03010KT 28/13 A2997 RMK A01 T02810126  RH  038%=      5-min Rain = 0
KWT1 252039Z 03009KT 28/12 A2997 RMK A01 T02810116  RH  036%=      5-min Rain = 0
KWT1 252040Z 03011KT 28/13 A2997 RMK A01 T02810126  RH  038%=      5-min Rain = 0
KWT1 252041Z 01008KT 28/12 A2997 RMK A01 T02810124  RH  038%=      5-min Rain = 0
KWT1 252042Z 01006KT 28/12 A2997 RMK A01 T02810118  RH  037%=      5-min Rain = 0
KWT1 252043Z 33007KT 28/12 A2997 RMK A01 T02790116  RH  036%=      5-min Rain = 0
KWT1 252044Z 00007KT 28/12 A2997 RMK A01 T02780121  RH  038%=      5-min Rain = 0
KWT1 252045Z 03008KT 28/12 A2997 RMK A01 T02780119  RH  037%=      5-min Rain = 0
KWT1 252046Z 04005KT 28/12 A2997 RMK A01 T02770119  RH  037%=      5-min Rain = 0
KWT1 252047Z 01006KT 28/13 A2997 RMK A01 T02760125  RH  039%=      5-min Rain = 0
KWT1 252048Z 00005KT 28/12 A2997 RMK A01 T02770115  RH  037%=      5-min Rain = 0
KWT1 252049Z 01007KT 28/12 A2997 RMK A01 T02760123  RH  039%=      5-min Rain = 0
KWT1 252050Z 03005KT 28/12 A2997 RMK A01 T02760116  RH  037%=      5-min Rain = 0
KWT1 252051Z 36002KT 28/11 A2997 RMK A01 T02750110  RH  036%=      5-min Rain = 0
KWT1 252052Z 04006KT 27/12 A2997 RMK A01 T02740119  RH  038%=      5-min Rain = 0
KWT1 252053Z 03005KT 28/12 A2997 RMK A01 T02750117  RH  037%=      5-min Rain = 0
KWT1 252054Z 02002KT 28/11 A2997 RMK A01 T02760113  RH  036%=      5-min Rain = 0
KWT1 252055Z 09003KT 28/12 A2997 RMK A01 T02760115  RH  037%=      5-min Rain = 0
KWT1 252056Z 06002KT 28/11 A2997 RMK A01 T02760112  RH  036%=      5-min Rain = 0
KWT1 252057Z 04002KT 28/12 A2997 RMK A01 T02770118  RH  037%=      5-min Rain = 0
KWT1 252058Z 01003KT 28/13 A2997 RMK A01 T02790127  RH  039%=      5-min Rain = 0
KWT1 252059Z 00008KT 28/13 A2997 RMK A01 T02800127  RH  039%=      5-min Rain = 0
KWT1 252100Z 00008KT 28/12 A2997 RMK A01 T02810121  RH  037%=      5-min Rain = 0
KWT1 252101Z 02008KT 28/12 A2997 RMK A01 T02810123  RH  038%=      5-min Rain = 0
KWT1 252102Z 03009KT 28/12 A2997 RMK A01 T02800123  RH  038%=      5-min Rain = 0
KWT1 252103Z 03008KT 28/12 A2997 RMK A01 T02800123  RH  038%=      5-min Rain = 0
KWT1 252104Z 04010KT 28/13 A2997 RMK A01 T02790126  RH  039%=      5-min Rain = 0
KWT1 252105Z 05010KT 28/13 A2997 RMK A01 T02800133  RH  040%=      5-min Rain = 0
KWT1 252106Z 04008KT 28/13 A2997 RMK A01 T02810130  RH  039%=      5-min Rain = 0
KWT1 252107Z 02009KT 28/12 A2997 RMK A01 T02800122  RH  038%=      5-min Rain = 0
KWT1 252108Z 02007KT 28/13 A2997 RMK A01 T02790130  RH  040%=      5-min Rain = 0
KWT1 252109Z 02012KT 28/13 A2997 RMK A01 T02790128  RH  039%=      5-min Rain = 0
KWT1 252110Z 03011KT 28/13 A2997 RMK A01 T02800125  RH  039%=      5-min Rain = 0
KWT1 252111Z 02008KT 28/12 A2997 RMK A01 T02800123  RH  038%=      5-min Rain = 0
KWT1 252112Z 02008KT 28/13 A2997 RMK A01 T02800126  RH  039%=      5-min Rain = 0
KWT1 252113Z 02009KT 28/13 A2997 RMK A01 T02800128  RH  039%=      5-min Rain = 0
KWT1 252114Z 36008G14KT 28/13 A2997 RMK A01 T02820129  RH  039%=      5-min Rain = 0
KWT1 252115Z 00012KT 28/12 A2997 RMK A01 T02820121  RH  037%=      5-min Rain = 0
KWT1 252116Z 01010KT 28/12 A2997 RMK A01 T02800117  RH  036%=      5-min Rain = 0
KWT1 252117Z 01007KT 28/11 A2997 RMK A01 T02780113  RH  036%=      5-min Rain = 0
KWT1 252118Z 02006KT 28/12 A2997 RMK A01 T02760118  RH  037%=      5-min Rain = 0
KWT1 252119Z 00005KT 28/12 A2997 RMK A01 T02760120  RH  038%=      5-min Rain = 0
KWT1 252120Z 02003KT 28/12 A2997 RMK A01 T02760119  RH  038%=      5-min Rain = 0
KWT1 252121Z 02004KT 28/12 A2997 RMK A01 T02760120  RH  038%=      5-min Rain = 0
KWT1 252122Z 02008KT 28/13 A2997 RMK A01 T02780130  RH  040%=      5-min Rain = 0
KWT1 252123Z 04010KT 28/14 A2997 RMK A01 T02790135  RH  041%=      5-min Rain = 0
KWT1 252124Z 04011KT 28/13 A2997 RMK A01 T02800132  RH  040%=      5-min Rain = 0
KWT1 252125Z 04009KT 28/13 A2997 RMK A01 T02790131  RH  040%=      5-min Rain = 0
KWT1 252126Z 05008KT 28/13 A2997 RMK A01 T02780133  RH  041%=      5-min Rain = 0
KWT1 252127Z 03007KT 28/14 A2997 RMK A01 T02780137  RH  042%=      5-min Rain = 0
KWT1 252128Z 04007KT 28/14 A2997 RMK A01 T02810138  RH  042%=      5-min Rain = 0
KWT1 252129Z 05004KT 28/12 A2997 RMK A01 T02800120  RH  037%=      5-min Rain = 0
KWT1 252130Z 04008KT 28/13 A2997 RMK A01 T02780130  RH  040%=      5-min Rain = 0
KWT1 252131Z 05008KT 28/12 A2997 RMK A01 T02780119  RH  037%=      5-min Rain = 0
KWT1 252132Z 04008KT 28/13 A2997 RMK A01 T02770131  RH  040%=      5-min Rain = 0
KWT1 252133Z 02009KT 28/13 A2997 RMK A01 T02780129  RH  040%=      5-min Rain = 0
KWT1 252134Z 03009KT 28/13 A2997 RMK A01 T02790131  RH  040%=      5-min Rain = 0
KWT1 252135Z 03010KT 28/13 A2997 RMK A01 T02810131  RH  040%=      5-min Rain = 0
KWT1 252136Z 03011KT 28/13 A2997 RMK A01 T02810127  RH  039%=      5-min Rain = 0
KWT1 252137Z 02010KT 28/13 A2997 RMK A01 T02790126  RH  039%=      5-min Rain = 0
KWT1 252138Z 35008KT 28/12 A2997 RMK A01 T02780121  RH  038%=      5-min Rain = 0
KWT1 252139Z 36007KT 28/12 A2997 RMK A01 T02770122  RH  038%=      5-min Rain = 0
KWT1 252140Z 04006KT 28/13 A2997 RMK A01 T02770131  RH  040%=      5-min Rain = 0
KWT1 252141Z 06006KT 28/13 A2997 RMK A01 T02780125  RH  039%=      5-min Rain = 0
KWT1 252142Z 07004KT 28/12 A2997 RMK A01 T02780119  RH  037%=      5-min Rain = 0
KWT1 252143Z 07005G12KT 28/12 A2997 RMK A01 T02770117  RH  037%=      5-min Rain = 0
KWT1 252144Z 03011KT 28/13 A2997 RMK A01 T02780131  RH  040%=      5-min Rain = 0
KWT1 252145Z 02009KT 28/13 A2997 RMK A01 T02790128  RH  039%=      5-min Rain = 0
KWT1 252146Z 02012KT 28/13 A2997 RMK A01 T02790127  RH  039%=      5-min Rain = 0
KWT1 252147Z 04009KT 28/13 A2997 RMK A01 T02790126  RH  039%=      5-min Rain = 0
KWT1 252148Z 02009KT 28/13 A2997 RMK A01 T02780127  RH  039%=      5-min Rain = 0
KWT1 252149Z 03008KT 28/12 A2997 RMK A01 T02780124  RH  039%=      5-min Rain = 0
KWT1 252150Z 03008KT 28/13 A2997 RMK A01 T02770127  RH  039%=      5-min Rain = 0
KWT1 252151Z 03009KT 28/13 A2997 RMK A01 T02770127  RH  039%=      5-min Rain = 0
KWT1 252152Z 02008KT 28/13 A2997 RMK A01 T02770126  RH  039%=      5-min Rain = 0
KWT1 252153Z 02009KT 28/13 A2997 RMK A01 T02770128  RH  040%=      5-min Rain = 0
KWT1 252154Z 01007KT 28/13 A2997 RMK A01 T02780134  RH  041%=      5-min Rain = 0
KWT1 252155Z 03010KT 28/13 A2997 RMK A01 T02790130  RH  040%=      5-min Rain = 0
KWT1 252156Z 05012KT 28/13 A2997 RMK A01 T02790133  RH  041%=      5-min Rain = 0
KWT1 252157Z 05009KT 28/12 A2997 RMK A01 T02800124  RH  038%=      5-min Rain = 0
KWT1 252158Z 05009KT 28/12 A2997 RMK A01 T02770124  RH  039%=      5-min Rain = 0
KWT1 252159Z 05009KT 28/13 A2997 RMK A01 T02760125  RH  039%=      5-min Rain = 0
KWT1 252200Z 05011KT 28/13 A2997 RMK A01 T02760132  RH  041%=      5-min Rain = 0
KWT1 252201Z 05009KT 28/13 A2997 RMK A01 T02770131  RH  041%=      5-min Rain = 0
KWT1 252202Z 05008KT 28/13 A2997 RMK A01 T02780128  RH  040%=      5-min Rain = 0
KWT1 252203Z 04008KT 28/13 A2997 RMK A01 T02770126  RH  039%=      5-min Rain = 0
KWT1 252204Z 05007KT 28/13 A2997 RMK A01 T02770126  RH  039%=      5-min Rain = 0
KWT1 252205Z 03007KT 28/13 A2997 RMK A01 T02770126  RH  039%=      5-min Rain = 0
KWT1 252206Z 05011KT 28/12 A2997 RMK A01 T02770124  RH  039%=      5-min Rain = 0
KWT1 252207Z 04009KT 28/12 A2997 RMK A01 T02760119  RH  038%=      5-min Rain = 0
KWT1 252208Z 36009KT 28/13 A2997 RMK A01 T02750125  RH  039%=      5-min Rain = 0
KWT1 252209Z 36008KT 28/13 A2997 RMK A01 T02760129  RH  040%=      5-min Rain = 0
KWT1 252210Z 00007KT 28/13 A2997 RMK A01 T02770125  RH  039%=      5-min Rain = 0
KWT1 252211Z 01007KT 28/13 A2997 RMK A01 T02770128  RH  040%=      5-min Rain = 0
KWT1 252212Z 02009KT 28/14 A2998 RMK A01 T02780135  RH  041%=      5-min Rain = 0
KWT1 252213Z 02010KT 28/13 A2998 RMK A01 T02790128  RH  039%=      5-min Rain = 0
KWT1 252214Z 02010KT 28/13 A2998 RMK A01 T02780128  RH  040%=      5-min Rain = 0
KWT1 252215Z 03010KT 28/13 A2998 RMK A01 T02780128  RH  040%=      5-min Rain = 0
KWT1 252216Z 05011KT 28/13 A2998 RMK A01 T02770129  RH  040%=      5-min Rain = 0
KWT1 252217Z 03010KT 28/13 A2998 RMK A01 T02770129  RH  040%=      5-min Rain = 0
KWT1 252218Z 02008KT 28/13 A2998 RMK A01 T02770126  RH  039%=      5-min Rain = 0
KWT1 252219Z 02007G12KT 28/13 A2998 RMK A01 T02770128  RH  040%=      5-min Rain = 0
KWT1 252220Z 04010KT 28/13 A2998 RMK A01 T02770126  RH  039%=      5-min Rain = 0
KWT1 252221Z 04011KT 28/13 A2998 RMK A01 T02760125  RH  039%=      5-min Rain = 0
KWT1 252222Z 02010KT 28/12 A2998 RMK A01 T02760121  RH  038%=      5-min Rain = 0
KWT1 252223Z 04008KT 28/13 A2998 RMK A01 T02750125  RH  039%=      5-min Rain = 0
KWT1 252224Z 04010KT 28/13 A2998 RMK A01 T02760127  RH  040%=      5-min Rain = 0
KWT1 252225Z 04008KT 28/12 A2998 RMK A01 T02770123  RH  039%=      5-min Rain = 0
KWT1 252226Z 04009KT 28/13 A2998 RMK A01 T02770131  RH  041%=      5-min Rain = 0
KWT1 252227Z 03011KT 28/13 A2998 RMK A01 T02770125  RH  039%=      5-min Rain = 0
KWT1 252228Z 03009KT 28/13 A2998 RMK A01 T02770125  RH  039%=      5-min Rain = 0
KWT1 252229Z 03008KT 28/13 A2998 RMK A01 T02780130  RH  040%=      5-min Rain = 0
KWT1 252230Z 03010KT 28/12 A2998 RMK A01 T02780124  RH  039%=      5-min Rain = 0
KWT1 252231Z 03009KT 28/12 A2998 RMK A01 T02780121  RH  038%=      5-min Rain = 0
KWT1 252232Z 03011KT 28/12 A2998 RMK A01 T02760124  RH  039%=      5-min Rain = 0
KWT1 252233Z 04011KT 28/13 A2998 RMK A01 T02760126  RH  039%=      5-min Rain = 0
KWT1 252234Z 04010KT 28/13 A2998 RMK A01 T02770125  RH  039%=      5-min Rain = 0
KWT1 252235Z 04011KT 28/13 A2998 RMK A01 T02760126  RH  039%=      5-min Rain = 0
KWT1 252236Z 03009KT 28/12 A2998 RMK A01 T02770124  RH  039%=      5-min Rain = 0
KWT1 252237Z 03007KT 28/12 A2998 RMK A01 T02760121  RH  038%=      5-min Rain = 0
KWT1 252238Z 02009KT 28/13 A2998 RMK A01 T02750128  RH  040%=      5-min Rain = 0
KWT1 252239Z 00008KT 28/13 A2998 RMK A01 T02760125  RH  039%=      5-min Rain = 0
KWT1 252240Z 02007KT 28/13 A2998 RMK A01 T02770128  RH  040%=      5-min Rain = 0
KWT1 252241Z 05008KT 28/13 A2998 RMK A01 T02770130  RH  040%=      5-min Rain = 0
KWT1 252242Z 05008KT 28/13 A2998 RMK A01 T02770125  RH  039%=      5-min Rain = 0
KWT1 252243Z 05008KT 28/13 A2999 RMK A01 T02770127  RH  039%=      5-min Rain = 0
KWT1 252244Z 04008KT 28/13 A2999 RMK A01 T02770130  RH  040%=      5-min Rain = 0
KWT1 252245Z 06008KT 28/13 A2999 RMK A01 T02770126  RH  039%=      5-min Rain = 0
KWT1 252246Z 05008KT 28/13 A2999 RMK A01 T02770129  RH  040%=      5-min Rain = 0
KWT1 252247Z 06008KT 28/13 A2999 RMK A01 T02770130  RH  040%=      5-min Rain = 0
KWT1 252248Z 05008KT 28/13 A2999 RMK A01 T02760131  RH  041%=      5-min Rain = 0
KWT1 252249Z 06009KT 28/13 A2999 RMK A01 T02760134  RH  041%=      5-min Rain = 0
KWT1 252250Z 07010KT 28/13 A2999 RMK A01 T02770134  RH  041%=      5-min Rain = 0
KWT1 252251Z 07007KT 28/13 A2999 RMK A01 T02760127  RH  040%=      5-min Rain = 0
KWT1 252252Z 06006KT 28/13 A2999 RMK A01 T02750131  RH  041%=      5-min Rain = 0
KWT1 252253Z 07007KT 28/13 A2999 RMK A01 T02750134  RH  042%=      5-min Rain = 0
KWT1 252254Z 07006KT 28/13 A2999 RMK A01 T02750129  RH  040%=      5-min Rain = 0
KWT1 252255Z 05009KT 28/13 A2999 RMK A01 T02760131  RH  041%=      5-min Rain = 0
KWT1 252256Z 05008KT 28/13 A2999 RMK A01 T02760130  RH  041%=      5-min Rain = 0
KWT1 252257Z 06006KT 28/13 A2999 RMK A01 T02750128  RH  040%=      5-min Rain = 0
KWT1 252258Z 07008KT 28/13 A2999 RMK A01 T02750125  RH  040%=      5-min Rain = 0
KWT1 252259Z 05010KT 27/13 A2999 RMK A01 T02740128  RH  041%=      5-min Rain = 0
KWT1 252300Z 04013KT 27/13 A2999 RMK A01 T02740129  RH  041%=      5-min Rain = 0
KWT1 252301Z 05010KT 27/13 A2999 RMK A01 T02740128  RH  040%=      5-min Rain = 0
KWT1 252302Z 03009KT 27/13 A2999 RMK A01 T02740125  RH  040%=      5-min Rain = 0
KWT1 252303Z 05009KT 27/13 A2999 RMK A01 T02740130  RH  041%=      5-min Rain = 0
KWT1 252304Z 06010KT 27/13 A2999 RMK A01 T02740125  RH  040%=      5-min Rain = 0
KWT1 252305Z 06009KT 27/13 A2999 RMK A01 T02740126  RH  040%=      5-min Rain = 0
KWT1 252306Z 07009KT 27/12 A2999 RMK A01 T02730124  RH  040%=      5-min Rain = 0
KWT1 252307Z 08011KT 27/13 A2999 RMK A01 T02730126  RH  040%=      5-min Rain = 0
KWT1 252308Z 08010KT 27/13 A2999 RMK A01 T02730126  RH  040%=      5-min Rain = 0
KWT1 252309Z 06011KT 27/13 A2999 RMK A01 T02740131  RH  041%=      5-min Rain = 0
KWT1 252310Z 06012KT 27/13 A2999 RMK A01 T02740126  RH  040%=      5-min Rain = 0
KWT1 252311Z 06009KT 27/12 A2999 RMK A01 T02740124  RH  039%=      5-min Rain = 0
KWT1 252312Z 05012KT 27/13 A2999 RMK A01 T02730125  RH  040%=      5-min Rain = 0
KWT1 252313Z 04013KT 27/12 A2999 RMK A01 T02730121  RH  039%=      5-min Rain = 0
KWT1 252314Z 05012KT 27/12 A30 RMK A01 T02720120  RH  039%=      5-min Rain = 0
KWT1 252315Z 06011KT 27/12 A30 RMK A01 T02720119  RH  039%=      5-min Rain = 0
KWT1 252316Z 06010KT 27/12 A30 RMK A01 T02710122  RH  040%=      5-min Rain = 0
KWT1 252317Z 05010KT 27/12 A30 RMK A01 T02710121  RH  039%=      5-min Rain = 0
KWT1 252318Z 04009KT 27/12 A30 RMK A01 T02710121  RH  039%=      5-min Rain = 0
KWT1 252319Z 04008KT 27/12 A30 RMK A01 T02700118  RH  039%=      5-min Rain = 0
KWT1 252320Z 06008KT 27/12 A30 RMK A01 T02700122  RH  040%=      5-min Rain = 0
KWT1 252321Z 06008KT 27/12 A30 RMK A01 T02700119  RH  039%=      5-min Rain = 0
KWT1 252322Z 07010KT 27/12 A30 RMK A01 T02700120  RH  039%=      5-min Rain = 0
KWT1 252323Z 07009KT 27/12 A30 RMK A01 T02700117  RH  039%=      5-min Rain = 0
KWT1 252324Z 06010KT 27/12 A30 RMK A01 T02710118  RH  039%=      5-min Rain = 0
KWT1 252325Z 06008KT 27/12 A30 RMK A01 T02700120  RH  039%=      5-min Rain = 0
KWT1 252326Z 08009KT 27/12 A30 RMK A01 T02710117  RH  038%=      5-min Rain = 0
KWT1 252327Z 07010KT 27/12 A30 RMK A01 T02710117  RH  039%=      5-min Rain = 0
KWT1 252328Z 07010KT 27/11 A30 RMK A01 T02690114  RH  038%=      5-min Rain = 0
KWT1 252329Z 07007KT 27/12 A30 RMK A01 T02680119  RH  040%=      5-min Rain = 0
KWT1 252330Z 09010KT 27/12 A30 RMK A01 T02680117  RH  039%=      5-min Rain = 0
KWT1 252331Z 06008KT 27/12 A30 RMK A01 T02680118  RH  039%=      5-min Rain = 0
KWT1 252332Z 07010KT 27/12 A30 RMK A01 T02690119  RH  039%=      5-min Rain = 0
KWT1 252333Z 07010KT 27/11 A30 RMK A01 T02690112  RH  037%=      5-min Rain = 0
KWT1 252334Z 07008KT 27/12 A30 RMK A01 T02690115  RH  038%=      5-min Rain = 0
KWT1 252335Z 06009KT 27/12 A30 RMK A01 T02690119  RH  039%=      5-min Rain = 0
KWT1 252336Z 06011KT 27/12 A30 RMK A01 T02700116  RH  038%=      5-min Rain = 0
KWT1 252337Z 05011KT 27/12 A3001 RMK A01 T02700115  RH  038%=      5-min Rain = 0
KWT1 252338Z 05009KT 27/11 A3001 RMK A01 T02700113  RH  038%=      5-min Rain = 0
KWT1 252339Z 06009KT 27/12 A3001 RMK A01 T02690118  RH  039%=      5-min Rain = 0
KWT1 252340Z 07007KT 27/12 A3001 RMK A01 T02690121  RH  040%=      5-min Rain = 0
KWT1 252341Z 06008KT 27/12 A3001 RMK A01 T02690120  RH  040%=      5-min Rain = 0
KWT1 252342Z 07008KT 27/11 A3001 RMK A01 T02700113  RH  038%=      5-min Rain = 0
KWT1 252343Z 06007KT 27/12 A3001 RMK A01 T02700116  RH  038%=      5-min Rain = 0
KWT1 252344Z 05008KT 27/12 A3001 RMK A01 T02700120  RH  039%=      5-min Rain = 0
KWT1 252345Z 04011KT 27/12 A3001 RMK A01 T02690116  RH  038%=      5-min Rain = 0
KWT1 252346Z 04011KT 27/11 A3001 RMK A01 T02690112  RH  038%=      5-min Rain = 0
KWT1 252347Z 04008G13KT 27/11 A3001 RMK A01 T02690113  RH  038%=      5-min Rain = 0
KWT1 252348Z 04007KT 27/12 A3001 RMK A01 T02690116  RH  039%=      5-min Rain = 0
KWT1 252349Z 05008KT 27/12 A3001 RMK A01 T02690120  RH  040%=      5-min Rain = 0
KWT1 252350Z 04007KT 27/12 A3001 RMK A01 T02690119  RH  039%=      5-min Rain = 0
KWT1 252351Z 05010KT 27/12 A3001 RMK A01 T02690116  RH  039%=      5-min Rain = 0
KWT1 252352Z 04011KT 27/11 A3001 RMK A01 T02690113  RH  038%=      5-min Rain = 0
KWT1 252353Z 05008KT 27/11 A3001 RMK A01 T02680113  RH  038%=      5-min Rain = 0
KWT1 252354Z 06009KT 27/12 A3001 RMK A01 T02670118  RH  039%=      5-min Rain = 0
KWT1 252355Z 06008KT 27/12 A3001 RMK A01 T02670115  RH  039%=      5-min Rain = 0
KWT1 252356Z 06009KT 27/12 A3001 RMK A01 T02660115  RH  039%=      5-min Rain = 0
KWT1 252357Z 06012KT 27/11 A3001 RMK A01 T02660112  RH  038%=      5-min Rain = 0
KWT1 252358Z 05012KT 27/11 A3001 RMK A01 T02650110  RH  038%=      5-min Rain = 0
KWT1 252359Z 06012KT 26/11 A3001 RMK A01 T02640111  RH  038%=      5-min Rain = 0
KWT1 260000Z 05010KT 26/11 A3001 RMK A01 T02640111  RH  038%=      5-min Rain = 0
KWT1 260001Z 06008KT 26/12 A3001 RMK A01 T02640115  RH  039%=      5-min Rain = 0
KWT1 260002Z 04010KT 26/12 A3001 RMK A01 T02640116  RH  040%=      5-min Rain = 0
KWT1 260003Z 05010KT 26/11 A3001 RMK A01 T02640114  RH  039%=      5-min Rain = 0
KWT1 260004Z 06010KT 26/11 A3001 RMK A01 T02630111  RH  038%=      5-min Rain = 0
KWT1 260005Z 05009KT 26/11 A3001 RMK A01 T02640112  RH  039%=      5-min Rain = 0
KWT1 260006Z 05011KT 26/11 A3001 RMK A01 T02630114  RH  039%=      5-min Rain = 0
KWT1 260007Z 05010KT 26/11 A3002 RMK A01 T02630111  RH  039%=      5-min Rain = 0
KWT1 260008Z 05010KT 26/11 A3002 RMK A01 T02620110  RH  039%=      5-min Rain = 0
KWT1 260009Z 06009KT 26/11 A3002 RMK A01 T02620112  RH  039%=      5-min Rain = 0
KWT1 260010Z 06011KT 26/11 A3002 RMK A01 T02620108  RH  038%=      5-min Rain = 0
KWT1 260011Z 06008KT 26/11 A3002 RMK A01 T02610107  RH  038%=      5-min Rain = 0
KWT1 260012Z 05009KT 26/11 A3002 RMK A01 T02610112  RH  039%=      5-min Rain = 0
KWT1 260013Z 06009KT 26/11 A3002 RMK A01 T02610109  RH  039%=      5-min Rain = 0
KWT1 260014Z 06008KT 26/11 A3002 RMK A01 T02600109  RH  039%=      5-min Rain = 0
KWT1 260015Z 07008KT 26/11 A3002 RMK A01 T02600110  RH  039%=      5-min Rain = 0
KWT1 260016Z 07010KT 26/11 A3002 RMK A01 T02600109  RH  039%=      5-min Rain = 0
KWT1 260017Z 07010KT 26/11 A3002 RMK A01 T02600107  RH  038%=      5-min Rain = 0
KWT1 260018Z 06010KT 26/11 A3002 RMK A01 T02600108  RH  039%=      5-min Rain = 0
KWT1 260019Z 06010KT 26/11 A3002 RMK A01 T02590108  RH  039%=      5-min Rain = 0
KWT1 260020Z 05010KT 26/11 A3002 RMK A01 T02590109  RH  039%=      5-min Rain = 0
KWT1 260021Z 05007KT 26/11 A3002 RMK A01 T02590113  RH  040%=      5-min Rain = 0
KWT1 260022Z 06009KT 26/11 A3002 RMK A01 T02580113  RH  040%=      5-min Rain = 0
KWT1 260023Z 06010KT 26/11 A3002 RMK A01 T02580112  RH  040%=      5-min Rain = 0
KWT1 260024Z 06011KT 26/11 A3002 RMK A01 T02570110  RH  040%=      5-min Rain = 0
KWT1 260025Z 05009KT 26/11 A3002 RMK A01 T02570108  RH  039%=      5-min Rain = 0
KWT1 260026Z 06008KT 26/11 A3002 RMK A01 T02560113  RH  041%=      5-min Rain = 0
KWT1 260027Z 06009KT 26/11 A3002 RMK A01 T02560110  RH  040%=      5-min Rain = 0
KWT1 260028Z 06008KT 26/11 A3002 RMK A01 T02550111  RH  040%=      5-min Rain = 0
KWT1 260029Z 06008KT 26/11 A3002 RMK A01 T02550111  RH  040%=      5-min Rain = 0
KWT1 260030Z 06008KT 25/11 A3002 RMK A01 T02540108  RH  040%=      5-min Rain = 0
KWT1 260031Z 06008KT 25/11 A3002 RMK A01 T02540110  RH  040%=      5-min Rain = 0
KWT1 260032Z 06008KT 25/11 A3002 RMK A01 T02540108  RH  040%=      5-min Rain = 0
KWT1 260033Z 06008KT 25/11 A3003 RMK A01 T02540110  RH  040%=      5-min Rain = 0
KWT1 260034Z 06008KT 25/11 A3003 RMK A01 T02540109  RH  040%=      5-min Rain = 0
KWT1 260035Z 06007KT 25/11 A3003 RMK A01 T02540108  RH  040%=      5-min Rain = 0
KWT1 260036Z 06007KT 25/11 A3003 RMK A01 T02540111  RH  041%=      5-min Rain = 0
KWT1 260037Z 06006KT 25/11 A3003 RMK A01 T02530112  RH  041%=      5-min Rain = 0
KWT1 260038Z 06007KT 25/11 A3003 RMK A01 T02530114  RH  042%=      5-min Rain = 0
KWT1 260039Z 06006KT 25/11 A3003 RMK A01 T02520114  RH  042%=      5-min Rain = 0
KWT1 260040Z 05006KT 25/11 A3003 RMK A01 T02520114  RH  042%=      5-min Rain = 0
KWT1 260041Z 06008KT 25/12 A3003 RMK A01 T02510115  RH  043%=      5-min Rain = 0
KWT1 260042Z 06008KT 25/11 A3003 RMK A01 T02500111  RH  041%=      5-min Rain = 0
KWT1 260043Z 06009KT 25/11 A3003 RMK A01 T02500112  RH  042%=      5-min Rain = 0
KWT1 260044Z 06008KT 25/11 A3003 RMK A01 T02500112  RH  042%=      5-min Rain = 0
KWT1 260045Z 06008KT 25/11 A3003 RMK A01 T02490113  RH  042%=      5-min Rain = 0
KWT1 260046Z 06008KT 25/11 A3003 RMK A01 T02490114  RH  043%=      5-min Rain = 0
KWT1 260047Z 06007KT 25/11 A3003 RMK A01 T02480114  RH  043%=      5-min Rain = 0
KWT1 260048Z 06007KT 25/12 A3003 RMK A01 T02480115  RH  043%=      5-min Rain = 0
KWT1 260049Z 06007KT 25/11 A3003 RMK A01 T02470114  RH  043%=      5-min Rain = 0
KWT1 260050Z 06007KT 25/11 A3003 RMK A01 T02460113  RH  043%=      5-min Rain = 0
KWT1 260051Z 06008KT 25/11 A3003 RMK A01 T02460114  RH  044%=      5-min Rain = 0
KWT1 260052Z 06007KT 25/11 A3003 RMK A01 T02450113  RH  043%=      5-min Rain = 0
KWT1 260053Z 06007KT 25/11 A3003 RMK A01 T02450113  RH  044%=      5-min Rain = 0
KWT1 260054Z 06008KT 25/11 A3003 RMK A01 T02450112  RH  043%=      5-min Rain = 0
KWT1 260055Z 06007KT 24/11 A3003 RMK A01 T02440112  RH  043%=      5-min Rain = 0
KWT1 260056Z 06007KT 24/11 A3003 RMK A01 T02440111  RH  043%=      5-min Rain = 0
KWT1 260057Z 06007KT 24/11 A3003 RMK A01 T02440110  RH  043%=      5-min Rain = 0
KWT1 260058Z 06007KT 24/11 A3003 RMK A01 T02440111  RH  043%=      5-min Rain = 0
KWT1 260059Z 06007KT 24/11 A3003 RMK A01 T02440111  RH  043%=      5-min Rain = 0
KWT1 260100Z 06006KT 24/11 A3003 RMK A01 T02430112  RH  044%=      5-min Rain = 0
KWT1 260101Z 07007KT 24/11 A3004 RMK A01 T02420111  RH  044%=      5-min Rain = 0
KWT1 260102Z 06006KT 24/11 A3004 RMK A01 T02420112  RH  044%=      5-min Rain = 0
KWT1 260103Z 06005KT 24/11 A3004 RMK A01 T02420113  RH  044%=      5-min Rain = 0
KWT1 260104Z 07007KT 24/11 A3004 RMK A01 T02410114  RH  045%=      5-min Rain = 0
KWT1 260105Z 07007KT 24/11 A3004 RMK A01 T02400114  RH  045%=      5-min Rain = 0
KWT1 260106Z 07006KT 24/11 A3004 RMK A01 T02390111  RH  045%=      5-min Rain = 0
KWT1 260107Z 07006KT 24/11 A3004 RMK A01 T02390114  RH  046%=      5-min Rain = 0
KWT1 260108Z 06006KT 24/11 A3004 RMK A01 T02380114  RH  046%=      5-min Rain = 0
KWT1 260109Z 06006KT 24/11 A3004 RMK A01 T02380114  RH  046%=      5-min Rain = 0
KWT1 260110Z 06006KT 24/11 A3004 RMK A01 T02370114  RH  046%=      5-min Rain = 0
KWT1 260111Z 06006KT 24/11 A3004 RMK A01 T02360114  RH  046%=      5-min Rain = 0
KWT1 260112Z 06006KT 24/12 A3004 RMK A01 T02350115  RH  047%=      5-min Rain = 0
KWT1 260113Z 06006KT 23/12 A3004 RMK A01 T02340115  RH  047%=      5-min Rain = 0
KWT1 260114Z 06006KT 23/12 A3004 RMK A01 T02330116  RH  048%=      5-min Rain = 0
KWT1 260115Z 06007KT 23/12 A3004 RMK A01 T02320116  RH  048%=      5-min Rain = 0
KWT1 260116Z 06006KT 23/12 A3004 RMK A01 T02310117  RH  049%=      5-min Rain = 0
KWT1 260117Z 05006KT 23/12 A3004 RMK A01 T02300118  RH  049%=      5-min Rain = 0
KWT1 260118Z 06006KT 23/12 A3004 RMK A01 T02290118  RH  049%=      5-min Rain = 0
KWT1 260119Z 05006KT 23/12 A3005 RMK A01 T02290119  RH  050%=      5-min Rain = 0
KWT1 260120Z 06006KT 23/12 A3005 RMK A01 T02280120  RH  051%=      5-min Rain = 0
KWT1 260121Z 06006KT 23/12 A3005 RMK A01 T02260119  RH  051%=      5-min Rain = 0
KWT1 260122Z 06006KT 23/12 A3005 RMK A01 T02250119  RH  051%=      5-min Rain = 0
KWT1 260123Z 06006KT 23/12 A3005 RMK A01 T02250119  RH  051%=      5-min Rain = 0
KWT1 260124Z 06006KT 23/12 A3005 RMK A01 T02250119  RH  051%=      5-min Rain = 0
KWT1 260125Z 05006KT 22/12 A3005 RMK A01 T02240117  RH  051%=      5-min Rain = 0
KWT1 260126Z 05007KT 23/12 A3005 RMK A01 T02250116  RH  050%=      5-min Rain = 0
KWT1 260127Z 05007KT 23/12 A3005 RMK A01 T02250117  RH  050%=      5-min Rain = 0
KWT1 260128Z 06007KT 23/12 A3005 RMK A01 T02250118  RH  051%=      5-min Rain = 0
KWT1 260129Z 05006KT 23/12 A3005 RMK A01 T02250119  RH  051%=      5-min Rain = 0
KWT1 260130Z 05007KT 22/12 A3005 RMK A01 T02240119  RH  052%=      5-min Rain = 0
KWT1 260131Z 05007KT 22/12 A3005 RMK A01 T02230119  RH  052%=      5-min Rain = 0
KWT1 260132Z 05006KT 22/12 A3005 RMK A01 T02230119  RH  052%=      5-min Rain = 0
KWT1 260133Z 05006KT 22/12 A3005 RMK A01 T02220120  RH  052%=      5-min Rain = 0
KWT1 260134Z 05006KT 22/12 A3005 RMK A01 T02220121  RH  053%=      5-min Rain = 0
KWT1 260135Z 05006KT 22/12 A3006 RMK A01 T02210122  RH  053%=      5-min Rain = 0
KWT1 260136Z 04008KT 22/12 A3006 RMK A01 T02200121  RH  053%=      5-min Rain = 0
KWT1 260137Z 04009KT 22/12 A3006 RMK A01 T02190119  RH  053%=      5-min Rain = 0
KWT1 260138Z 05012KT 22/12 A3006 RMK A01 T02190117  RH  052%=      5-min Rain = 0
KWT1 260139Z 04015KT 22/12 A3006 RMK A01 T02230117  RH  051%=      5-min Rain = 0
KWT1 260140Z 04013KT 23/12 A3006 RMK A01 T02260118  RH  051%=      5-min Rain = 0
KWT1 260141Z 03012KT 23/12 A3006 RMK A01 T02270120  RH  051%=      5-min Rain = 0
KWT1 260142Z 04013KT 23/12 A3006 RMK A01 T02260120  RH  051%=      5-min Rain = 0
KWT1 260143Z 03013KT 23/12 A3007 RMK A01 T02260121  RH  051%=      5-min Rain = 0
KWT1 260144Z 03012KT 23/12 A3007 RMK A01 T02260121  RH  051%=      5-min Rain = 0
KWT1 260145Z 03012KT 23/12 A3007 RMK A01 T02260121  RH  051%=      5-min Rain = 0
KWT1 260146Z 03011KT 23/12 A3007 RMK A01 T02260121  RH  051%=      5-min Rain = 0
KWT1 260147Z 04011KT 23/12 A3007 RMK A01 T02260122  RH  052%=      5-min Rain = 0
KWT1 260148Z 03011KT 23/12 A3007 RMK A01 T02260122  RH  052%=      5-min Rain = 0
KWT1 260149Z 03009KT 22/12 A3007 RMK A01 T02240122  RH  052%=      5-min Rain = 0
KWT1 260150Z 03011KT 22/12 A3007 RMK A01 T02240122  RH  052%=      5-min Rain = 0
KWT1 260151Z 03010KT 22/12 A3007 RMK A01 T02240122  RH  052%=      5-min Rain = 0
KWT1 260152Z 04010KT 22/12 A3007 RMK A01 T02240122  RH  052%=      5-min Rain = 0
KWT1 260153Z 04010KT 22/12 A3007 RMK A01 T02240122  RH  052%=      5-min Rain = 0
KWT1 260154Z 04010KT 22/12 A3007 RMK A01 T02230122  RH  053%=      5-min Rain = 0
KWT1 260155Z 04011KT 22/12 A3007 RMK A01 T02230121  RH  052%=      5-min Rain = 0
KWT1 260156Z 03011KT 22/12 A3007 RMK A01 T02230120  RH  052%=      5-min Rain = 0
KWT1 260157Z 03010KT 22/12 A3007 RMK A01 T02230119  RH  052%=      5-min Rain = 0
KWT1 260158Z 03011KT 22/12 A3007 RMK A01 T02230120  RH  052%=      5-min Rain = 0
KWT1 260159Z 03009KT 22/12 A3007 RMK A01 T02230118  RH  052%=      5-min Rain = 0
KWT1 260200Z 03010KT 22/12 A3007 RMK A01 T02230119  RH  052%=      5-min Rain = 0
KWT1 260201Z 03009KT 22/12 A3007 RMK A01 T02220118  RH  052%=      5-min Rain = 0
KWT1 260202Z 03011KT 22/12 A3007 RMK A01 T02220118  RH  052%=      5-min Rain = 0
KWT1 260203Z 03011KT 22/12 A3008 RMK A01 T02230118  RH  052%=      5-min Rain = 0
KWT1 260204Z 03011KT 22/12 A3008 RMK A01 T02220117  RH  051%=      5-min Rain = 0
KWT1 260205Z 03010KT 22/12 A3008 RMK A01 T02220118  RH  052%=      5-min Rain = 0
KWT1 260206Z 03009KT 22/12 A3008 RMK A01 T02220118  RH  052%=      5-min Rain = 0
KWT1 260207Z 03009KT 22/12 A3008 RMK A01 T02220118  RH  052%=      5-min Rain = 0
KWT1 260208Z 04009KT 22/12 A3008 RMK A01 T02210119  RH  052%=      5-min Rain = 0
KWT1 260209Z 03009KT 22/12 A3008 RMK A01 T02200119  RH  053%=      5-min Rain = 0
KWT1 260210Z 03008KT 22/12 A3008 RMK A01 T02190119  RH  053%=      5-min Rain = 0
KWT1 260211Z 03007KT 22/12 A3008 RMK A01 T02180119  RH  053%=      5-min Rain = 0
KWT1 260212Z 03007KT 22/12 A3008 RMK A01 T02170120  RH  054%=      5-min Rain = 0
KWT1 260213Z 03009KT 22/12 A3008 RMK A01 T02160120  RH  054%=      5-min Rain = 0
KWT1 260214Z 04008KT 22/12 A3008 RMK A01 T02160119  RH  054%=      5-min Rain = 0
KWT1 260215Z 03010KT 22/12 A3008 RMK A01 T02160119  RH  054%=      5-min Rain = 0
KWT1 260216Z 03009KT 22/12 A3008 RMK A01 T02160118  RH  054%=      5-min Rain = 0
KWT1 260217Z 04008KT 22/12 A3008 RMK A01 T02170119  RH  054%=      5-min Rain = 0
KWT1 260218Z 03007KT 22/12 A3008 RMK A01 T02160120  RH  054%=      5-min Rain = 0
KWT1 260219Z 03009KT 22/12 A3008 RMK A01 T02150119  RH  054%=      5-min Rain = 0
KWT1 260220Z 03008KT 22/12 A3008 RMK A01 T02150118  RH  054%=      5-min Rain = 0
KWT1 260221Z 03008KT 22/12 A3008 RMK A01 T02150118  RH  054%=      5-min Rain = 0
KWT1 260222Z 03008KT 22/12 A3008 RMK A01 T02160119  RH  054%=      5-min Rain = 0
KWT1 260223Z 04008KT 22/12 A3009 RMK A01 T02150119  RH  054%=      5-min Rain = 0
KWT1 260224Z 03008KT 21/12 A3009 RMK A01 T02140119  RH  054%=      5-min Rain = 0
KWT1 260225Z 03008KT 21/12 A3009 RMK A01 T02140119  RH  055%=      5-min Rain = 0
KWT1 260226Z 04008KT 21/12 A3009 RMK A01 T02130119  RH  055%=      5-min Rain = 0
KWT1 260227Z 04008KT 21/12 A3009 RMK A01 T02140118  RH  054%=      5-min Rain = 0
KWT1 260228Z 03008KT 21/12 A3009 RMK A01 T02140118  RH  054%=      5-min Rain = 0
KWT1 260229Z 03009KT 21/12 A3009 RMK A01 T02140118  RH  054%=      5-min Rain = 0
KWT1 260230Z 04009KT 21/12 A3009 RMK A01 T02140118  RH  054%=      5-min Rain = 0
KWT1 260231Z 04009KT 21/12 A3009 RMK A01 T02130117  RH  054%=      5-min Rain = 0
KWT1 260232Z 04011KT 21/12 A3009 RMK A01 T02140117  RH  054%=      5-min Rain = 0
KWT1 260233Z 04009KT 21/12 A3009 RMK A01 T02140117  RH  054%=      5-min Rain = 0
KWT1 260234Z 04010KT 21/12 A3009 RMK A01 T02140117  RH  054%=      5-min Rain = 0
KWT1 260235Z 04009KT 21/12 A3009 RMK A01 T02140118  RH  054%=      5-min Rain = 0
KWT1 260236Z 04011KT 21/12 A3009 RMK A01 T02140117  RH  054%=      5-min Rain = 0
KWT1 260237Z 03009KT 21/12 A3009 RMK A01 T02130116  RH  054%=      5-min Rain = 0
KWT1 260238Z 03009KT 21/12 A3009 RMK A01 T02130116  RH  054%=      5-min Rain = 0
KWT1 260239Z 03010KT 21/12 A3009 RMK A01 T02130117  RH  054%=      5-min Rain = 0
KWT1 260240Z 03009KT 21/12 A3009 RMK A01 T02130116  RH  054%=      5-min Rain = 0
KWT1 260241Z 03010KT 21/12 A3009 RMK A01 T02130115  RH  054%=      5-min Rain = 0
KWT1 260242Z 03011KT 21/12 A3009 RMK A01 T02130115  RH  053%=      5-min Rain = 0
KWT1 260243Z 03009KT 21/12 A3009 RMK A01 T02140115  RH  053%=      5-min Rain = 0
KWT1 260244Z 03009KT 21/12 A3009 RMK A01 T02130116  RH  054%=      5-min Rain = 0
KWT1 260245Z 03010KT 21/12 A301 RMK A01 T02120116  RH  054%=      5-min Rain = 0
KWT1 260246Z 03011KT 21/12 A301 RMK A01 T02110115  RH  054%=      5-min Rain = 0
KWT1 260247Z 03010KT 21/12 A301 RMK A01 T02120116  RH  054%=      5-min Rain = 0
KWT1 260248Z 03007KT 21/12 A301 RMK A01 T02110115  RH  054%=      5-min Rain = 0
KWT1 260249Z 03010KT 21/12 A301 RMK A01 T02110116  RH  054%=      5-min Rain = 0
KWT1 260250Z 03010KT 21/12 A301 RMK A01 T02110115  RH  054%=      5-min Rain = 0
KWT1 260251Z 03011KT 21/12 A301 RMK A01 T02110115  RH  054%=      5-min Rain = 0
KWT1 260252Z 03010KT 21/11 A301 RMK A01 T02110114  RH  054%=      5-min Rain = 0
KWT1 260253Z 03010KT 21/12 A301 RMK A01 T02110115  RH  054%=      5-min Rain = 0
KWT1 260254Z 03008KT 21/12 A301 RMK A01 T02110115  RH  054%=      5-min Rain = 0
KWT1 260255Z 03011KT 21/12 A301 RMK A01 T02100116  RH  055%=      5-min Rain = 0
KWT1 260256Z 03011KT 21/12 A301 RMK A01 T02100115  RH  054%=      5-min Rain = 0
KWT1 260257Z 03009KT 21/12 A301 RMK A01 T02100115  RH  054%=      5-min Rain = 0
KWT1 260258Z 03009KT 21/12 A3011 RMK A01 T02100115  RH  054%=      5-min Rain = 0
KWT1 260259Z 04011KT 21/12 A3011 RMK A01 T02100116  RH  055%=      5-min Rain = 0
KWT1 260300Z 04009KT 21/12 A3011 RMK A01 T02100115  RH  055%=      5-min Rain = 0
KWT1 260301Z 03009KT 21/12 A3011 RMK A01 T02100116  RH  055%=      5-min Rain = 0
KWT1 260302Z 04010KT 21/12 A3011 RMK A01 T02090116  RH  055%=      5-min Rain = 0
KWT1 260303Z 04009KT 21/12 A3011 RMK A01 T02090115  RH  055%=      5-min Rain = 0
KWT1 260304Z 03008KT 21/12 A3011 RMK A01 T02090116  RH  055%=      5-min Rain = 0
KWT1 260305Z 04010KT 21/12 A3011 RMK A01 T02090116  RH  055%=      5-min Rain = 0
KWT1 260306Z 04010KT 21/12 A3011 RMK A01 T02080115  RH  055%=      5-min Rain = 0
KWT1 260307Z 04010KT 21/12 A3011 RMK A01 T02080115  RH  055%=      5-min Rain = 0
KWT1 260308Z 04009KT 21/12 A3011 RMK A01 T02080115  RH  055%=      5-min Rain = 0
KWT1 260309Z 03008KT 21/12 A3011 RMK A01 T02080116  RH  056%=      5-min Rain = 0
KWT1 260310Z 04009KT 21/12 A3011 RMK A01 T02070116  RH  056%=      5-min Rain = 0
KWT1 260311Z 03009KT 21/12 A3011 RMK A01 T02070115  RH  056%=      5-min Rain = 0
KWT1 260312Z 04009KT 21/12 A3011 RMK A01 T02070115  RH  056%=      5-min Rain = 0
KWT1 260313Z 04010KT 21/12 A3011 RMK A01 T02070116  RH  056%=      5-min Rain = 0
KWT1 260314Z 03008KT 21/12 A3011 RMK A01 T02070115  RH  056%=      5-min Rain = 0
KWT1 260315Z 04008KT 21/12 A3011 RMK A01 T02060116  RH  056%=      5-min Rain = 0
KWT1 260316Z 04007KT 21/12 A3012 RMK A01 T02060117  RH  057%=      5-min Rain = 0
KWT1 260317Z 04009KT 20/12 A3012 RMK A01 T02040117  RH  057%=      5-min Rain = 0
KWT1 260318Z 04009KT 20/12 A3012 RMK A01 T02040117  RH  057%=      5-min Rain = 0
KWT1 260319Z 04009KT 20/12 A3012 RMK A01 T02030115  RH  057%=      5-min Rain = 0
KWT1 260320Z 04010KT 20/12 A3012 RMK A01 T02040116  RH  057%=      5-min Rain = 0
KWT1 260321Z 04010KT 20/12 A3012 RMK A01 T02040116  RH  057%=      5-min Rain = 0
KWT1 260322Z 04010KT 20/12 A3012 RMK A01 T02030115  RH  057%=      5-min Rain = 0
KWT1 260323Z 04010KT 20/12 A3012 RMK A01 T02030115  RH  057%=      5-min Rain = 0
KWT1 260324Z 04010KT 20/12 A3012 RMK A01 T02040115  RH  057%=      5-min Rain = 0
KWT1 260325Z 04009KT 20/12 A3012 RMK A01 T02040116  RH  057%=      5-min Rain = 0
KWT1 260326Z 04009KT 20/12 A3012 RMK A01 T02030116  RH  057%=      5-min Rain = 0
KWT1 260327Z 05009KT 20/12 A3012 RMK A01 T02030115  RH  057%=      5-min Rain = 0
KWT1 260328Z 04011KT 20/12 A3012 RMK A01 T02020116  RH  057%=      5-min Rain = 0
KWT1 260329Z 04011KT 20/12 A3012 RMK A01 T02020115  RH  057%=      5-min Rain = 0
KWT1 260330Z 05010KT 20/12 A3012 RMK A01 T02020115  RH  057%=      5-min Rain = 0
KWT1 260331Z 05010KT 20/12 A3012 RMK A01 T02020116  RH  058%=      5-min Rain = 0
KWT1 260332Z 05009KT 20/12 A3012 RMK A01 T02010116  RH  058%=      5-min Rain = 0
KWT1 260333Z 05011KT 20/12 A3012 RMK A01 T02010116  RH  058%=      5-min Rain = 0
KWT1 260334Z 05009KT 20/12 A3012 RMK A01 T02010116  RH  058%=      5-min Rain = 0
KWT1 260335Z 05010KT 20/12 A3012 RMK A01 T02000116  RH  058%=      5-min Rain = 0
KWT1 260336Z 05010KT 20/12 A3013 RMK A01 T02000116  RH  058%=      5-min Rain = 0
KWT1 260337Z 05008KT 20/12 A3013 RMK A01 T02000117  RH  059%=      5-min Rain = 0
KWT1 260338Z 04009KT 20/12 A3013 RMK A01 T01990118  RH  059%=      5-min Rain = 0
KWT1 260339Z 05009KT 20/12 A3013 RMK A01 T01980117  RH  060%=      5-min Rain = 0
KWT1 260340Z 04008KT 20/12 A3013 RMK A01 T01970117  RH  060%=      5-min Rain = 0
KWT1 260341Z 05009KT 20/12 A3013 RMK A01 T01970117  RH  060%=      5-min Rain = 0
KWT1 260342Z 05008KT 20/12 A3013 RMK A01 T01970117  RH  060%=      5-min Rain = 0
KWT1 260343Z 05008KT 20/12 A3013 RMK A01 T01970117  RH  060%=      5-min Rain = 0
KWT1 260344Z 05008KT 20/12 A3013 RMK A01 T01970117  RH  060%=      5-min Rain = 0
KWT1 260345Z 05007KT 20/12 A3013 RMK A01 T01970117  RH  060%=      5-min Rain = 0
KWT1 260346Z 05007KT 20/12 A3013 RMK A01 T01960118  RH  060%=      5-min Rain = 0
KWT1 260347Z 05007KT 20/12 A3013 RMK A01 T01950118  RH  061%=      5-min Rain = 0
KWT1 260348Z 05007KT 20/12 A3013 RMK A01 T01950118  RH  061%=      5-min Rain = 0
KWT1 260349Z 05008KT 20/12 A3013 RMK A01 T01950118  RH  061%=      5-min Rain = 0
KWT1 260350Z 05007KT 20/12 A3013 RMK A01 T01950118  RH  061%=      5-min Rain = 0
KWT1 260351Z 05008KT 20/12 A3013 RMK A01 T01950118  RH  061%=      5-min Rain = 0
KWT1 260352Z 05007KT 20/12 A3013 RMK A01 T01950118  RH  061%=      5-min Rain = 0
KWT1 260353Z 05006KT 19/12 A3013 RMK A01 T01940119  RH  061%=      5-min Rain = 0
KWT1 260354Z 05009KT 19/12 A3013 RMK A01 T01940118  RH  062%=      5-min Rain = 0
KWT1 260355Z 05009KT 19/12 A3013 RMK A01 T01940118  RH  061%=      5-min Rain = 0
KWT1 260356Z 05010KT 19/12 A3013 RMK A01 T01940118  RH  061%=      5-min Rain = 0
KWT1 260357Z 05010KT 19/12 A3013 RMK A01 T01940118  RH  061%=      5-min Rain = 0
KWT1 260358Z 05010KT 19/12 A3013 RMK A01 T01940118  RH  061%=      5-min Rain = 0
KWT1 260359Z 05009KT 19/12 A3013 RMK A01 T01940118  RH  061%=      5-min Rain = 0
KWT1 260400Z 05008KT 20/12 A3013 RMK A01 T01950119  RH  062%=      5-min Rain = 0
KWT1 260401Z 05009KT 19/12 A3014 RMK A01 T01940119  RH  062%=      5-min Rain = 0
KWT1 260402Z 05008KT 19/12 A3014 RMK A01 T01930119  RH  062%=      5-min Rain = 0
KWT1 260403Z 05008KT 19/12 A3014 RMK A01 T01930119  RH  062%=      5-min Rain = 0
KWT1 260404Z 05010KT 19/12 A3014 RMK A01 T01920119  RH  062%=      5-min Rain = 0
KWT1 260405Z 05009KT 19/12 A3014 RMK A01 T01920118  RH  062%=      5-min Rain = 0
KWT1 260406Z 05009KT 19/12 A3014 RMK A01 T01930118  RH  062%=      5-min Rain = 0
KWT1 260407Z 05009KT 19/12 A3014 RMK A01 T01930119  RH  062%=      5-min Rain = 0
KWT1 260408Z 05009KT 19/12 A3014 RMK A01 T01930119  RH  062%=      5-min Rain = 0
KWT1 260409Z 05009KT 19/12 A3014 RMK A01 T01920118  RH  062%=      5-min Rain = 0
KWT1 260410Z 05008KT 19/12 A3014 RMK A01 T01920118  RH  062%=      5-min Rain = 0
KWT1 260411Z 05008KT 19/12 A3014 RMK A01 T01920119  RH  062%=      5-min Rain = 0
KWT1 260412Z 05008KT 19/12 A3014 RMK A01 T01920119  RH  063%=      5-min Rain = 0
KWT1 260413Z 05008KT 19/12 A3014 RMK A01 T01910119  RH  063%=      5-min Rain = 0
KWT1 260414Z 05007KT 19/12 A3014 RMK A01 T01910119  RH  063%=      5-min Rain = 0
KWT1 260415Z 05010KT 19/12 A3014 RMK A01 T01910119  RH  063%=      5-min Rain = 0
KWT1 260416Z 05009KT 19/12 A3014 RMK A01 T01910118  RH  063%=      5-min Rain = 0
KWT1 260417Z 05008KT 19/12 A3014 RMK A01 T01910119  RH  063%=      5-min Rain = 0
KWT1 260418Z 05008KT 19/12 A3014 RMK A01 T01910119  RH  063%=      5-min Rain = 0
KWT1 260419Z 05007KT 19/12 A3014 RMK A01 T01910119  RH  063%=      5-min Rain = 0
KWT1 260420Z 05008KT 19/12 A3014 RMK A01 T01900120  RH  064%=      5-min Rain = 0
KWT1 260421Z 05009KT 19/12 A3014 RMK A01 T01900119  RH  063%=      5-min Rain = 0
KWT1 260422Z 05008KT 19/12 A3014 RMK A01 T01900119  RH  063%=      5-min Rain = 0
KWT1 260423Z 05008KT 19/12 A3014 RMK A01 T01900119  RH  063%=      5-min Rain = 0
KWT1 260424Z 06007KT 19/12 A3014 RMK A01 T01900119  RH  063%=      5-min Rain = 0
KWT1 260425Z 06007KT 19/12 A3014 RMK A01 T01900119  RH  064%=      5-min Rain = 0
KWT1 260426Z 05008KT 19/12 A3014 RMK A01 T01900120  RH  064%=      5-min Rain = 0
KWT1 260427Z 06008KT 19/12 A3014 RMK A01 T01890119  RH  064%=      5-min Rain = 0
KWT1 260428Z 05008KT 19/12 A3014 RMK A01 T01900119  RH  064%=      5-min Rain = 0
KWT1 260429Z 05008KT 19/12 A3015 RMK A01 T01900119  RH  064%=      5-min Rain = 0
KWT1 260430Z 05008KT 19/12 A3015 RMK A01 T01900120  RH  064%=      5-min Rain = 0
KWT1 260431Z 06008KT 19/12 A3015 RMK A01 T01890120  RH  064%=      5-min Rain = 0
KWT1 260432Z 06008KT 19/12 A3015 RMK A01 T01890120  RH  064%=      5-min Rain = 0
KWT1 260433Z 05008KT 19/12 A3015 RMK A01 T01890121  RH  065%=      5-min Rain = 0
KWT1 260434Z 06008KT 19/12 A3015 RMK A01 T01880120  RH  065%=      5-min Rain = 0
KWT1 260435Z 05009KT 19/12 A3015 RMK A01 T01880120  RH  065%=      5-min Rain = 0
KWT1 260436Z 06008KT 19/12 A3015 RMK A01 T01880121  RH  065%=      5-min Rain = 0
KWT1 260437Z 06009KT 19/12 A3015 RMK A01 T01880121  RH  065%=      5-min Rain = 0
KWT1 260438Z 05009KT 19/12 A3015 RMK A01 T01870121  RH  066%=      5-min Rain = 0
KWT1 260439Z 05008KT 19/12 A3015 RMK A01 T01860120  RH  065%=      5-min Rain = 0
KWT1 260440Z 06008KT 19/12 A3015 RMK A01 T01870121  RH  066%=      5-min Rain = 0
KWT1 260441Z 06008KT 19/12 A3015 RMK A01 T01870121  RH  066%=      5-min Rain = 0
KWT1 260442Z 06008KT 19/12 A3015 RMK A01 T01860121  RH  066%=      5-min Rain = 0
KWT1 260443Z 06008KT 19/12 A3015 RMK A01 T01860121  RH  066%=      5-min Rain = 0
KWT1 260444Z 06009KT 19/12 A3015 RMK A01 T01860121  RH  066%=      5-min Rain = 0
KWT1 260445Z 06008KT 19/12 A3015 RMK A01 T01860121  RH  066%=      5-min Rain = 0
KWT1 260446Z 05008KT 19/12 A3015 RMK A01 T01860121  RH  066%=      5-min Rain = 0
KWT1 260447Z 05009KT 19/12 A3015 RMK A01 T01860121  RH  066%=      5-min Rain = 0
KWT1 260448Z 05009KT 19/12 A3015 RMK A01 T01850122  RH  066%=      5-min Rain = 0
KWT1 260449Z 05008KT 19/12 A3015 RMK A01 T01850122  RH  067%=      5-min Rain = 0
KWT1 260450Z 05009KT 19/12 A3015 RMK A01 T01850122  RH  067%=      5-min Rain = 0
KWT1 260451Z 05009KT 19/12 A3015 RMK A01 T01850122  RH  067%=      5-min Rain = 0
KWT1 260452Z 05009KT 18/12 A3015 RMK A01 T01840122  RH  067%=      5-min Rain = 0
KWT1 260453Z 05009KT 18/12 A3015 RMK A01 T01830122  RH  067%=      5-min Rain = 0
KWT1 260454Z 05008KT 18/12 A3015 RMK A01 T01830122  RH  067%=      5-min Rain = 0
KWT1 260455Z 04008KT 18/12 A3015 RMK A01 T01830122  RH  067%=      5-min Rain = 0
KWT1 260456Z 04008KT 18/12 A3015 RMK A01 T01820121  RH  068%=      5-min Rain = 0
KWT1 260457Z 05007KT 18/12 A3015 RMK A01 T01820122  RH  068%=      5-min Rain = 0
KWT1 260458Z 04009KT 18/12 A3015 RMK A01 T01810121  RH  068%=      5-min Rain = 0
KWT1 260459Z 04008KT 18/12 A3015 RMK A01 T01810121  RH  068%=      5-min Rain = 0

Page generated in 0.2356 seconds.